Wetterdaten: Dienstag, 13.01.2026
Datum Zeit Temp. Aussen Temp. o. S. Temp +5cm Feuchte Auss Luftdruck Regen Sonnenschein Regendauer Solar Windböen Empfang
13.01.2026 00:00 7,3 °C 6,7 °C 3,3 °C 100 % 1009,8 hPa 0,0 l/m² 0 min 0 min 0 W/m² 3,2 km/h (1 Bft) 98,00 %
13.01.2026 00:02 7,3 °C 6,7 °C 3,3 °C 100 % 1009,8 hPa 0,0 l/m² 0 min 0 min 0 W/m² 6,4 km/h (2 Bft) 94,87 %
13.01.2026 00:04 7,3 °C 6,7 °C 3,3 °C 100 % 1009,8 hPa 0,0 l/m² 0 min 0 min 0 W/m² 9,7 km/h (2 Bft) 97,92 %
13.01.2026 00:07 7,4 °C 6,7 °C 3,3 °C 100 % 1009,9 hPa 0,0 l/m² 0 min 0 min 0 W/m² 12,9 km/h (3 Bft) 97,92 %
13.01.2026 00:08 7,4 °C 6,7 °C 3,3 °C 100 % 1009,9 hPa 0,0 l/m² 0 min 0 min 0 W/m² 12,9 km/h (3 Bft) 96,81 %
13.01.2026 00:10 7,4 °C 6,7 °C 3,3 °C 100 % 1009,9 hPa 0,0 l/m² 0 min 0 min 0 W/m² 6,4 km/h (2 Bft) 96,23 %
13.01.2026 00:12 7,4 °C 6,7 °C 3,3 °C 100 % 1009,9 hPa 0,0 l/m² 0 min 0 min 0 W/m² 6,4 km/h (2 Bft) 95,00 %
13.01.2026 00:14 7,4 °C 6,7 °C 3,3 °C 100 % 1009,9 hPa 0,0 l/m² 0 min 0 min 0 W/m² 3,2 km/h (1 Bft) 97,87 %
13.01.2026 00:16 7,4 °C 6,7 °C 3,3 °C 100 % 1010,0 hPa 0,0 l/m² 0 min 0 min 0 W/m² 6,4 km/h (2 Bft) 100,00 %
13.01.2026 00:18 7,4 °C 6,7 °C 3,3 °C 100 % 1010,0 hPa 0,0 l/m² 0 min 0 min 0 W/m² 3,2 km/h (1 Bft) 100,00 %
13.01.2026 00:20 7,4 °C 6,7 °C 3,9 °C 100 % 1009,9 hPa 0,0 l/m² 0 min 0 min 0 W/m² 12,9 km/h (3 Bft) 98,04 %
13.01.2026 00:22 7,5 °C 6,7 °C 3,9 °C 100 % 1010,0 hPa 0,0 l/m² 0 min 0 min 0 W/m² 6,4 km/h (2 Bft) 100,00 %
13.01.2026 00:24 7,5 °C 6,7 °C 3,9 °C 100 % 1009,9 hPa 0,0 l/m² 0 min 0 min 0 W/m² 6,4 km/h (2 Bft) 97,78 %
13.01.2026 00:26 7,6 °C 7,2 °C 3,9 °C 100 % 1009,9 hPa 0,0 l/m² 0 min 0 min 0 W/m² 6,4 km/h (2 Bft) 97,83 %
13.01.2026 00:28 7,6 °C 6,7 °C 3,9 °C 100 % 1010,1 hPa 0,0 l/m² 0 min 0 min 0 W/m² 12,9 km/h (3 Bft) 97,83 %
13.01.2026 00:30 7,6 °C 7,2 °C 3,9 °C 100 % 1010,1 hPa 0,0 l/m² 0 min 0 min 0 W/m² 6,4 km/h (2 Bft) 94,64 %
13.01.2026 00:32 7,6 °C 7,2 °C 3,9 °C 100 % 1010,0 hPa 0,0 l/m² 0 min 0 min 0 W/m² 3,2 km/h (1 Bft) 97,56 %
13.01.2026 00:34 7,6 °C 7,2 °C 3,9 °C 100 % 1010,1 hPa 0,0 l/m² 0 min 0 min 0 W/m² 6,4 km/h (2 Bft) 97,83 %
13.01.2026 00:36 7,6 °C 6,7 °C 3,9 °C 100 % 1010,1 hPa 0,0 l/m² 0 min 0 min 0 W/m² 3,2 km/h (1 Bft) 97,87 %
13.01.2026 00:38 7,7 °C 7,2 °C 3,9 °C 100 % 1010,0 hPa 0,0 l/m² 0 min 0 min 0 W/m² 6,4 km/h (2 Bft) 97,83 %
13.01.2026 00:40 7,6 °C 7,2 °C 3,9 °C 100 % 1010,0 hPa 0,0 l/m² 0 min 0 min 0 W/m² 6,4 km/h (2 Bft) 97,73 %
13.01.2026 00:42 7,6 °C 7,2 °C 3,9 °C 100 % 1010,0 hPa 0,0 l/m² 0 min 0 min 0 W/m² 6,4 km/h (2 Bft) 98,25 %
13.01.2026 00:44 7,6 °C 6,7 °C 3,9 °C 100 % 1010,0 hPa 0,0 l/m² 0 min 0 min 0 W/m² 0,0 km/h (0 Bft) 97,56 %
13.01.2026 00:46 7,6 °C 7,2 °C 3,9 °C 100 % 1010,1 hPa 0,0 l/m² 0 min 0 min 0 W/m² 6,4 km/h (2 Bft) 97,83 %
13.01.2026 00:48 7,6 °C 7,2 °C 3,9 °C 100 % 1010,1 hPa 0,0 l/m² 0 min 0 min 0 W/m² 3,2 km/h (1 Bft) 95,74 %
13.01.2026 00:50 7,6 °C 7,2 °C 3,9 °C 100 % 1010,1 hPa 0,0 l/m² 0 min 0 min 0 W/m² 9,7 km/h (2 Bft) 95,45 %
13.01.2026 00:52 7,6 °C 7,2 °C 3,9 °C 100 % 1010,1 hPa 0,0 l/m² 0 min 0 min 0 W/m² 3,2 km/h (1 Bft) 98,21 %
13.01.2026 00:54 7,6 °C 7,2 °C 3,9 °C 100 % 1010,1 hPa 0,0 l/m² 0 min 0 min 0 W/m² 3,2 km/h (1 Bft) 97,56 %
13.01.2026 00:56 7,6 °C 7,2 °C 3,9 °C 100 % 1010,1 hPa 0,0 l/m² 0 min 0 min 0 W/m² 3,2 km/h (1 Bft) 95,74 %
13.01.2026 00:58 7,6 °C 7,2 °C 3,9 °C 100 % 1010,1 hPa 0,0 l/m² 0 min 0 min 0 W/m² 3,2 km/h (1 Bft) 97,83 %
13.01.2026 01:00 7,6 °C 7,2 °C 3,9 °C 100 % 1010,1 hPa 0,0 l/m² 0 min 0 min 0 W/m² 3,2 km/h (1 Bft) 97,78 %
13.01.2026 01:02 7,6 °C 7,2 °C 3,9 °C 100 % 1010,1 hPa 0,0 l/m² 0 min 0 min 0 W/m² 3,2 km/h (1 Bft) 95,83 %
13.01.2026 01:04 7,7 °C 7,2 °C 3,9 °C 100 % 1010,2 hPa 0,0 l/m² 0 min 0 min 0 W/m² 9,7 km/h (2 Bft) 95,74 %
13.01.2026 01:08 7,7 °C 7,2 °C 3,9 °C 100 % 1010,2 hPa 0,0 l/m² 0 min 0 min 0 W/m² 3,2 km/h (1 Bft) 95,65 %
13.01.2026 01:10 7,7 °C 6,7 °C 3,3 °C 100 % 1010,2 hPa 0,0 l/m² 0 min 0 min 0 W/m² 0,0 km/h (0 Bft) 96,43 %
13.01.2026 01:12 7,6 °C 6,7 °C 3,3 °C 100 % 1010,2 hPa 0,0 l/m² 0 min 0 min 0 W/m² 3,2 km/h (1 Bft) 97,50 %
13.01.2026 01:14 7,6 °C 6,7 °C 3,3 °C 100 % 1010,2 hPa 0,0 l/m² 0 min 0 min 0 W/m² 3,2 km/h (1 Bft) 100,00 %
13.01.2026 01:16 7,6 °C 7,2 °C 3,3 °C 100 % 1010,2 hPa 0,0 l/m² 0 min 0 min 0 W/m² 3,2 km/h (1 Bft) 100,00 %
13.01.2026 01:18 7,6 °C 7,2 °C 3,3 °C 100 % 1010,2 hPa 0,0 l/m² 0 min 0 min 0 W/m² 3,2 km/h (1 Bft) 97,78 %
13.01.2026 01:20 7,6 °C 7,2 °C 3,3 °C 100 % 1010,2 hPa 0,0 l/m² 0 min 0 min 0 W/m² 0,0 km/h (0 Bft) 98,08 %
13.01.2026 01:22 7,6 °C 7,2 °C 3,3 °C 100 % 1010,2 hPa 0,0 l/m² 0 min 0 min 0 W/m² 3,2 km/h (1 Bft) 100,00 %
13.01.2026 01:24 7,6 °C 6,7 °C 3,3 °C 100 % 1010,2 hPa 0,0 l/m² 0 min 0 min 0 W/m² 6,4 km/h (2 Bft) 100,00 %
13.01.2026 01:26 7,6 °C 7,2 °C 3,3 °C 100 % 1010,1 hPa 0,0 l/m² 0 min 0 min 0 W/m² 6,4 km/h (2 Bft) 100,00 %
13.01.2026 01:28 7,6 °C 7,2 °C 3,9 °C 100 % 1010,1 hPa 0,0 l/m² 0 min 0 min 0 W/m² 3,2 km/h (1 Bft) 94,74 %
13.01.2026 01:30 7,6 °C 7,2 °C 3,9 °C 100 % 1010,1 hPa 0,0 l/m² 0 min 0 min 0 W/m² 9,7 km/h (2 Bft) 97,56 %
13.01.2026 01:32 7,7 °C 7,2 °C 3,9 °C 100 % 1010,1 hPa 0,0 l/m² 0 min 0 min 0 W/m² 9,7 km/h (2 Bft) 97,87 %
13.01.2026 01:34 7,7 °C 7,2 °C 3,9 °C 100 % 1010,2 hPa 0,0 l/m² 0 min 0 min 0 W/m² 9,7 km/h (2 Bft) 97,83 %
13.01.2026 01:36 7,7 °C 7,2 °C 3,9 °C 100 % 1010,2 hPa 0,0 l/m² 0 min 0 min 0 W/m² 6,4 km/h (2 Bft) 97,78 %
13.01.2026 01:38 7,7 °C 7,2 °C 3,9 °C 100 % 1010,2 hPa 0,0 l/m² 0 min 0 min 0 W/m² 6,4 km/h (2 Bft) 97,78 %
13.01.2026 01:40 7,7 °C 7,2 °C 3,9 °C 100 % 1010,2 hPa 0,0 l/m² 0 min 0 min 0 W/m² 9,7 km/h (2 Bft) 94,12 %
13.01.2026 01:42 7,7 °C 7,2 °C 3,9 °C 100 % 1010,2 hPa 0,0 l/m² 0 min 0 min 0 W/m² 12,9 km/h (3 Bft) 95,74 %
13.01.2026 01:44 7,7 °C 7,2 °C 3,9 °C 100 % 1010,2 hPa 0,0 l/m² 0 min 0 min 0 W/m² 6,4 km/h (2 Bft) 95,65 %
13.01.2026 01:46 7,7 °C 7,2 °C 3,9 °C 100 % 1010,2 hPa 0,0 l/m² 0 min 0 min 0 W/m² 3,2 km/h (1 Bft) 95,74 %
13.01.2026 01:48 7,7 °C 7,2 °C 3,9 °C 100 % 1010,2 hPa 0,0 l/m² 0 min 0 min 0 W/m² 6,4 km/h (2 Bft) 91,11 %
13.01.2026 01:50 7,7 °C 7,2 °C 3,9 °C 100 % 1010,2 hPa 0,0 l/m² 0 min 0 min 0 W/m² 9,7 km/h (2 Bft) 95,56 %
13.01.2026 01:52 7,7 °C 7,2 °C 3,9 °C 100 % 1010,2 hPa 0,0 l/m² 0 min 0 min 0 W/m² 9,7 km/h (2 Bft) 96,49 %
13.01.2026 01:54 7,7 °C 7,2 °C 3,9 °C 100 % 1010,2 hPa 0,0 l/m² 0 min 0 min 0 W/m² 12,9 km/h (3 Bft) 95,12 %
13.01.2026 01:56 7,7 °C 7,2 °C 3,9 °C 100 % 1010,2 hPa 0,0 l/m² 0 min 0 min 0 W/m² 9,7 km/h (2 Bft) 95,65 %
13.01.2026 01:58 7,7 °C 7,2 °C 3,9 °C 100 % 1010,3 hPa 0,0 l/m² 0 min 0 min 0 W/m² 9,7 km/h (2 Bft) 95,74 %
13.01.2026 02:00 7,7 °C 7,2 °C 3,9 °C 100 % 1010,3 hPa 0,0 l/m² 0 min 0 min 0 W/m² 3,2 km/h (1 Bft) 93,62 %
13.01.2026 02:02 7,7 °C 7,2 °C 3,9 °C 100 % 1010,3 hPa 0,0 l/m² 0 min 0 min 0 W/m² 3,2 km/h (1 Bft) 95,45 %
13.01.2026 02:04 7,7 °C 7,2 °C 3,9 °C 100 % 1010,2 hPa 0,0 l/m² 0 min 0 min 0 W/m² 9,7 km/h (2 Bft) 94,00 %
13.01.2026 02:07 7,7 °C 7,2 °C 3,9 °C 100 % 1010,3 hPa 0,0 l/m² 0 min 0 min 0 W/m² 6,4 km/h (2 Bft) 95,71 %
13.01.2026 02:08 7,7 °C 7,2 °C 3,9 °C 100 % 1010,3 hPa 0,0 l/m² 0 min 0 min 0 W/m² 6,4 km/h (2 Bft) 95,65 %
13.01.2026 02:12 7,7 °C 7,2 °C 3,9 °C 100 % 1010,4 hPa 0,0 l/m² 0 min 0 min 0 W/m² 3,2 km/h (1 Bft) 91,67 %
13.01.2026 02:18 7,7 °C 7,2 °C 3,9 °C 100 % 1010,4 hPa 0,0 l/m² 0 min 0 min 0 W/m² 6,4 km/h (2 Bft) 100,00 %
13.01.2026 02:19 7,7 °C 7,2 °C 3,9 °C 100 % 1010,4 hPa 0,0 l/m² 0 min 0 min 0 W/m² 6,4 km/h (2 Bft) 100,00 %
13.01.2026 02:20 7,7 °C 7,2 °C 3,9 °C 100 % 1010,4 hPa 0,0 l/m² 0 min 0 min 0 W/m² 6,4 km/h (2 Bft) 100,00 %
13.01.2026 02:24 7,7 °C 7,2 °C 3,9 °C 100 % 1010,5 hPa 0,0 l/m² 0 min 0 min 0 W/m² 3,2 km/h (1 Bft) 98,28 %
13.01.2026 02:26 7,8 °C 7,2 °C 3,9 °C 100 % 1010,4 hPa 0,0 l/m² 0 min 0 min 0 W/m² 6,4 km/h (2 Bft) 100,00 %
13.01.2026 02:28 7,8 °C 7,2 °C 3,9 °C 100 % 1010,5 hPa 0,0 l/m² 0 min 0 min 0 W/m² 12,9 km/h (3 Bft) 100,00 %
13.01.2026 02:30 7,8 °C 7,2 °C 4,4 °C 100 % 1010,5 hPa 0,0 l/m² 0 min 0 min 0 W/m² 6,4 km/h (2 Bft) 100,00 %
13.01.2026 02:32 7,8 °C 7,2 °C 3,9 °C 100 % 1010,5 hPa 0,0 l/m² 0 min 0 min 0 W/m² 6,4 km/h (2 Bft) 100,00 %
13.01.2026 02:34 7,8 °C 7,2 °C 3,9 °C 100 % 1010,5 hPa 0,0 l/m² 0 min 0 min 0 W/m² 6,4 km/h (2 Bft) 100,00 %
13.01.2026 02:36 7,8 °C 7,2 °C 4,4 °C 100 % 1010,5 hPa 0,0 l/m² 0 min 0 min 0 W/m² 6,4 km/h (2 Bft) 100,00 %
13.01.2026 02:38 7,8 °C 7,2 °C 4,4 °C 100 % 1010,5 hPa 0,0 l/m² 0 min 0 min 0 W/m² 9,7 km/h (2 Bft) 100,00 %
13.01.2026 02:40 7,8 °C 7,2 °C 3,9 °C 100 % 1010,5 hPa 0,0 l/m² 0 min 0 min 0 W/m² 9,7 km/h (2 Bft) 100,00 %
13.01.2026 02:42 7,8 °C 7,2 °C 3,9 °C 100 % 1010,5 hPa 0,0 l/m² 0 min 0 min 0 W/m² 9,7 km/h (2 Bft) 97,73 %
13.01.2026 02:44 7,8 °C 7,2 °C 4,4 °C 100 % 1010,5 hPa 0,0 l/m² 0 min 0 min 0 W/m² 12,9 km/h (3 Bft) 97,78 %
13.01.2026 02:46 7,8 °C 7,2 °C 4,4 °C 100 % 1010,5 hPa 0,0 l/m² 0 min 0 min 0 W/m² 16,1 km/h (3 Bft) 97,92 %
13.01.2026 02:48 7,8 °C 7,2 °C 4,4 °C 100 % 1010,6 hPa 0,0 l/m² 0 min 0 min 0 W/m² 16,1 km/h (3 Bft) 100,00 %
13.01.2026 02:50 7,8 °C 7,2 °C 4,4 °C 100 % 1010,6 hPa 0,0 l/m² 0 min 0 min 0 W/m² 9,7 km/h (2 Bft) 100,00 %
13.01.2026 02:52 7,8 °C 7,2 °C 4,4 °C 100 % 1010,6 hPa 0,0 l/m² 0 min 0 min 0 W/m² 6,4 km/h (2 Bft) 98,28 %
13.01.2026 02:54 7,8 °C 7,2 °C 4,4 °C 100 % 1010,5 hPa 0,0 l/m² 0 min 0 min 0 W/m² 3,2 km/h (1 Bft) 100,00 %
13.01.2026 02:56 7,8 °C 7,2 °C 4,4 °C 100 % 1010,6 hPa 0,0 l/m² 0 min 0 min 0 W/m² 6,4 km/h (2 Bft) 100,00 %
13.01.2026 02:58 7,8 °C 7,2 °C 4,4 °C 100 % 1010,7 hPa 0,0 l/m² 0 min 0 min 0 W/m² 3,2 km/h (1 Bft) 100,00 %
13.01.2026 03:00 7,8 °C 7,2 °C 3,9 °C 100 % 1010,7 hPa 0,0 l/m² 0 min 0 min 0 W/m² 6,4 km/h (2 Bft) 100,00 %
13.01.2026 03:02 7,8 °C 7,2 °C 3,9 °C 100 % 1010,7 hPa 0,0 l/m² 0 min 0 min 0 W/m² 3,2 km/h (1 Bft) 100,00 %
13.01.2026 03:04 7,8 °C 7,2 °C 3,9 °C 100 % 1010,6 hPa 0,0 l/m² 0 min 0 min 0 W/m² 3,2 km/h (1 Bft) 97,87 %
13.01.2026 03:06 7,8 °C 7,2 °C 3,9 °C 100 % 1010,7 hPa 0,0 l/m² 0 min 0 min 0 W/m² 6,4 km/h (2 Bft) 100,00 %
13.01.2026 03:08 7,8 °C 7,2 °C 3,9 °C 100 % 1010,7 hPa 0,0 l/m² 0 min 0 min 0 W/m² 3,2 km/h (1 Bft) 98,04 %
13.01.2026 03:10 7,8 °C 7,2 °C 3,9 °C 100 % 1010,6 hPa 0,0 l/m² 0 min 0 min 0 W/m² 3,2 km/h (1 Bft) 100,00 %
13.01.2026 03:12 7,8 °C 7,2 °C 3,9 °C 100 % 1010,6 hPa 0,0 l/m² 0 min 0 min 0 W/m² 3,2 km/h (1 Bft) 97,73 %
13.01.2026 03:14 7,7 °C 7,2 °C 3,9 °C 100 % 1010,6 hPa 0,0 l/m² 0 min 0 min 0 W/m² 3,2 km/h (1 Bft) 100,00 %
13.01.2026 03:16 7,7 °C 7,2 °C 3,9 °C 100 % 1010,6 hPa 0,0 l/m² 0 min 0 min 0 W/m² 12,9 km/h (3 Bft) 97,87 %
13.01.2026 03:18 7,7 °C 7,2 °C 3,9 °C 100 % 1010,6 hPa 0,0 l/m² 0 min 0 min 0 W/m² 3,2 km/h (1 Bft) 100,00 %
13.01.2026 03:20 7,7 °C 7,2 °C 3,9 °C 100 % 1010,6 hPa 0,0 l/m² 0 min 0 min 0 W/m² 12,9 km/h (3 Bft) 100,00 %
13.01.2026 03:22 7,7 °C 7,2 °C 3,9 °C 100 % 1010,7 hPa 0,0 l/m² 0 min 0 min 0 W/m² 3,2 km/h (1 Bft) 96,55 %
13.01.2026 03:24 7,7 °C 7,2 °C 3,9 °C 100 % 1010,7 hPa 0,0 l/m² 0 min 0 min 0 W/m² 6,4 km/h (2 Bft) 97,73 %
13.01.2026 03:26 7,7 °C 7,2 °C 3,9 °C 100 % 1010,6 hPa 0,0 l/m² 0 min 0 min 0 W/m² 6,4 km/h (2 Bft) 94,74 %
13.01.2026 03:28 7,7 °C 7,2 °C 3,9 °C 100 % 1010,6 hPa 0,0 l/m² 0 min 0 min 0 W/m² 3,2 km/h (1 Bft) 94,64 %
13.01.2026 03:30 7,7 °C 7,2 °C 3,9 °C 100 % 1010,6 hPa 0,0 l/m² 0 min 0 min 0 W/m² 6,4 km/h (2 Bft) 97,78 %
13.01.2026 03:32 7,7 °C 7,2 °C 3,9 °C 100 % 1010,6 hPa 0,0 l/m² 0 min 0 min 0 W/m² 3,2 km/h (1 Bft) 97,83 %
13.01.2026 03:34 7,7 °C 7,2 °C 3,9 °C 100 % 1010,5 hPa 0,0 l/m² 0 min 0 min 0 W/m² 3,2 km/h (1 Bft) 97,92 %
13.01.2026 03:36 7,7 °C 6,7 °C 3,9 °C 100 % 1010,5 hPa 0,0 l/m² 0 min 0 min 0 W/m² 3,2 km/h (1 Bft) 96,08 %
13.01.2026 03:38 7,7 °C 6,7 °C 3,9 °C 100 % 1010,5 hPa 0,0 l/m² 0 min 0 min 0 W/m² 3,2 km/h (1 Bft) 89,36 %
13.01.2026 03:40 7,6 °C 6,7 °C 3,9 °C 100 % 1010,5 hPa 0,0 l/m² 0 min 0 min 0 W/m² 3,2 km/h (1 Bft) 93,33 %
13.01.2026 03:42 7,6 °C 6,7 °C 3,9 °C 100 % 1010,5 hPa 0,0 l/m² 0 min 0 min 0 W/m² 6,4 km/h (2 Bft) 95,45 %
13.01.2026 03:44 7,6 °C 6,7 °C 3,9 °C 100 % 1010,6 hPa 0,0 l/m² 0 min 0 min 0 W/m² 6,4 km/h (2 Bft) 95,83 %
13.01.2026 03:46 7,6 °C 6,7 °C 3,9 °C 100 % 1010,5 hPa 0,0 l/m² 0 min 0 min 0 W/m² 0,0 km/h (0 Bft) 93,75 %
13.01.2026 03:48 7,6 °C 6,7 °C 3,9 °C 99 % 1010,5 hPa 0,0 l/m² 0 min 0 min 0 W/m² 0,0 km/h (0 Bft) 95,56 %
13.01.2026 03:50 7,5 °C 6,7 °C 3,9 °C 99 % 1010,5 hPa 0,0 l/m² 0 min 0 min 0 W/m² 0,0 km/h (0 Bft) 100,00 %
13.01.2026 03:52 7,5 °C 6,7 °C 3,9 °C 99 % 1010,5 hPa 0,0 l/m² 0 min 0 min 0 W/m² 0,0 km/h (0 Bft) 95,83 %
13.01.2026 03:54 7,5 °C 6,7 °C 3,9 °C 99 % 1010,5 hPa 0,0 l/m² 0 min 0 min 0 W/m² 0,0 km/h (0 Bft) 95,74 %
13.01.2026 03:56 7,4 °C 6,7 °C 3,9 °C 99 % 1010,6 hPa 0,0 l/m² 0 min 0 min 0 W/m² 0,0 km/h (0 Bft) 91,67 %
13.01.2026 03:58 7,4 °C 6,7 °C 3,9 °C 99 % 1010,5 hPa 0,0 l/m² 0 min 0 min 0 W/m² 0,0 km/h (0 Bft) 89,80 %
13.01.2026 04:00 7,4 °C 6,7 °C 3,3 °C 99 % 1010,5 hPa 0,0 l/m² 0 min 0 min 0 W/m² 0,0 km/h (0 Bft) 93,62 %
13.01.2026 04:02 7,4 °C 6,7 °C 3,3 °C 99 % 1010,6 hPa 0,0 l/m² 0 min 0 min 0 W/m² 0,0 km/h (0 Bft) 93,62 %
13.01.2026 04:04 7,4 °C 6,7 °C 3,3 °C 99 % 1010,6 hPa 0,0 l/m² 0 min 0 min 0 W/m² 0,0 km/h (0 Bft) 94,44 %
13.01.2026 04:08 7,4 °C 6,7 °C 3,3 °C 99 % 1010,6 hPa 0,0 l/m² 0 min 0 min 0 W/m² 0,0 km/h (0 Bft) 93,27 %
13.01.2026 04:10 7,4 °C 6,7 °C 3,3 °C 99 % 1010,6 hPa 0,0 l/m² 0 min 0 min 0 W/m² 0,0 km/h (0 Bft) 95,45 %
13.01.2026 04:12 7,4 °C 6,7 °C 3,3 °C 99 % 1010,6 hPa 0,0 l/m² 0 min 0 min 0 W/m² 0,0 km/h (0 Bft) 97,83 %
13.01.2026 04:14 7,4 °C 6,7 °C 3,3 °C 99 % 1010,6 hPa 0,0 l/m² 0 min 0 min 0 W/m² 0,0 km/h (0 Bft) 97,50 %
13.01.2026 04:16 7,4 °C 6,7 °C 3,3 °C 99 % 1010,6 hPa 0,0 l/m² 0 min 0 min 0 W/m² 0,0 km/h (0 Bft) 97,87 %
13.01.2026 04:18 7,3 °C 6,7 °C 3,3 °C 99 % 1010,6 hPa 0,0 l/m² 0 min 0 min 0 W/m² 0,0 km/h (0 Bft) 97,87 %
13.01.2026 04:20 7,3 °C 6,7 °C 3,3 °C 99 % 1010,7 hPa 0,0 l/m² 0 min 0 min 0 W/m² 0,0 km/h (0 Bft) 95,74 %
13.01.2026 04:22 7,3 °C 6,7 °C 3,3 °C 99 % 1010,6 hPa 0,0 l/m² 0 min 0 min 0 W/m² 0,0 km/h (0 Bft) 95,74 %
13.01.2026 04:24 7,3 °C 6,7 °C 3,3 °C 99 % 1010,6 hPa 0,0 l/m² 0 min 0 min 0 W/m² 0,0 km/h (0 Bft) 98,21 %
13.01.2026 04:26 7,3 °C 6,7 °C 3,3 °C 99 % 1010,7 hPa 0,0 l/m² 0 min 0 min 0 W/m² 0,0 km/h (0 Bft) 97,30 %
13.01.2026 04:28 7,3 °C 6,7 °C 3,3 °C 99 % 1010,7 hPa 0,0 l/m² 0 min 0 min 0 W/m² 0,0 km/h (0 Bft) 97,87 %
13.01.2026 04:30 7,3 °C 6,7 °C 3,9 °C 99 % 1010,7 hPa 0,0 l/m² 0 min 0 min 0 W/m² 0,0 km/h (0 Bft) 98,11 %
13.01.2026 04:32 7,3 °C 6,7 °C 3,9 °C 100 % 1010,6 hPa 0,0 l/m² 0 min 0 min 0 W/m² 0,0 km/h (0 Bft) 95,83 %
13.01.2026 04:34 7,3 °C 6,7 °C 3,9 °C 100 % 1010,6 hPa 0,0 l/m² 0 min 0 min 0 W/m² 0,0 km/h (0 Bft) 97,83 %
13.01.2026 04:36 7,3 °C 6,7 °C 3,9 °C 99 % 1010,6 hPa 0,0 l/m² 0 min 0 min 0 W/m² 0,0 km/h (0 Bft) 97,87 %
13.01.2026 04:38 7,3 °C 6,7 °C 3,9 °C 99 % 1010,6 hPa 0,0 l/m² 0 min 0 min 0 W/m² 0,0 km/h (0 Bft) 100,00 %
13.01.2026 04:40 7,3 °C 6,7 °C 3,9 °C 100 % 1010,6 hPa 0,0 l/m² 0 min 0 min 0 W/m² 0,0 km/h (0 Bft) 100,00 %
13.01.2026 04:42 7,3 °C 6,7 °C 3,9 °C 100 % 1010,6 hPa 0,0 l/m² 0 min 0 min 0 W/m² 0,0 km/h (0 Bft) 100,00 %
13.01.2026 04:44 7,3 °C 6,7 °C 3,9 °C 99 % 1010,6 hPa 0,0 l/m² 0 min 0 min 0 W/m² 0,0 km/h (0 Bft) 100,00 %
13.01.2026 04:46 7,4 °C 6,7 °C 3,9 °C 100 % 1010,6 hPa 0,0 l/m² 0 min 0 min 0 W/m² 0,0 km/h (0 Bft) 100,00 %
13.01.2026 04:48 7,4 °C 6,7 °C 3,9 °C 99 % 1010,6 hPa 0,0 l/m² 0 min 0 min 0 W/m² 0,0 km/h (0 Bft) 100,00 %
13.01.2026 04:50 7,3 °C 6,7 °C 3,9 °C 99 % 1010,6 hPa 0,0 l/m² 0 min 0 min 0 W/m² 0,0 km/h (0 Bft) 100,00 %
13.01.2026 04:52 7,4 °C 6,7 °C 3,9 °C 100 % 1010,6 hPa 0,0 l/m² 0 min 0 min 0 W/m² 0,0 km/h (0 Bft) 100,00 %
13.01.2026 04:54 7,4 °C 6,7 °C 3,9 °C 99 % 1010,7 hPa 0,0 l/m² 0 min 0 min 0 W/m² 0,0 km/h (0 Bft) 100,00 %
13.01.2026 04:56 7,3 °C 6,7 °C 3,9 °C 99 % 1010,7 hPa 0,0 l/m² 0 min 0 min 0 W/m² 6,4 km/h (2 Bft) 100,00 %
13.01.2026 04:58 7,4 °C 6,7 °C 3,9 °C 99 % 1010,7 hPa 0,0 l/m² 0 min 0 min 0 W/m² 3,2 km/h (1 Bft) 100,00 %
13.01.2026 05:00 7,4 °C 6,7 °C 3,9 °C 99 % 1010,7 hPa 0,0 l/m² 0 min 0 min 0 W/m² 3,2 km/h (1 Bft) 100,00 %
13.01.2026 05:02 7,4 °C 6,7 °C 3,9 °C 99 % 1010,7 hPa 0,0 l/m² 0 min 0 min 0 W/m² 6,4 km/h (2 Bft) 97,73 %
13.01.2026 05:04 7,4 °C 6,7 °C 3,9 °C 99 % 1010,7 hPa 0,0 l/m² 0 min 0 min 0 W/m² 0,0 km/h (0 Bft) 100,00 %
13.01.2026 05:06 7,4 °C 6,7 °C 3,9 °C 99 % 1010,7 hPa 0,0 l/m² 0 min 0 min 0 W/m² 0,0 km/h (0 Bft) 100,00 %
13.01.2026 05:08 7,4 °C 6,7 °C 3,9 °C 99 % 1010,7 hPa 0,0 l/m² 0 min 0 min 0 W/m² 0,0 km/h (0 Bft) 100,00 %
13.01.2026 05:10 7,4 °C 6,7 °C 3,9 °C 99 % 1010,8 hPa 0,0 l/m² 0 min 0 min 0 W/m² 0,0 km/h (0 Bft) 100,00 %
13.01.2026 05:12 7,4 °C 7,2 °C 3,9 °C 99 % 1010,7 hPa 0,0 l/m² 0 min 0 min 0 W/m² 0,0 km/h (0 Bft) 100,00 %
13.01.2026 05:14 7,4 °C 7,2 °C 3,9 °C 99 % 1010,7 hPa 0,0 l/m² 0 min 0 min 0 W/m² 0,0 km/h (0 Bft) 100,00 %
13.01.2026 05:16 7,4 °C 7,2 °C 3,9 °C 99 % 1010,7 hPa 0,0 l/m² 0 min 0 min 0 W/m² 6,4 km/h (2 Bft) 100,00 %
13.01.2026 05:18 7,4 °C 7,2 °C 3,9 °C 99 % 1010,7 hPa 0,0 l/m² 0 min 0 min 0 W/m² 6,4 km/h (2 Bft) 100,00 %
13.01.2026 05:20 7,4 °C 7,2 °C 3,9 °C 99 % 1010,7 hPa 0,0 l/m² 0 min 0 min 0 W/m² 3,2 km/h (1 Bft) 100,00 %
13.01.2026 05:22 7,4 °C 6,7 °C 3,9 °C 99 % 1010,7 hPa 0,0 l/m² 0 min 0 min 0 W/m² 3,2 km/h (1 Bft) 100,00 %
13.01.2026 05:24 7,4 °C 7,2 °C 3,9 °C 99 % 1010,7 hPa 0,0 l/m² 0 min 0 min 0 W/m² 3,2 km/h (1 Bft) 100,00 %
13.01.2026 05:26 7,4 °C 7,2 °C 3,9 °C 99 % 1010,7 hPa 0,0 l/m² 0 min 0 min 0 W/m² 3,2 km/h (1 Bft) 100,00 %
13.01.2026 05:28 7,4 °C 6,7 °C 3,9 °C 99 % 1010,7 hPa 0,0 l/m² 0 min 0 min 0 W/m² 3,2 km/h (1 Bft) 100,00 %
13.01.2026 05:30 7,4 °C 7,2 °C 3,9 °C 99 % 1010,7 hPa 0,0 l/m² 0 min 0 min 0 W/m² 0,0 km/h (0 Bft) 100,00 %
13.01.2026 05:32 7,4 °C 7,2 °C 3,9 °C 99 % 1010,7 hPa 0,0 l/m² 0 min 0 min 0 W/m² 0,0 km/h (0 Bft) 97,78 %
13.01.2026 05:34 7,4 °C 7,2 °C 3,9 °C 99 % 1010,7 hPa 0,0 l/m² 0 min 0 min 0 W/m² 3,2 km/h (1 Bft) 97,56 %
13.01.2026 05:36 7,4 °C 7,2 °C 3,9 °C 99 % 1010,7 hPa 0,0 l/m² 0 min 0 min 0 W/m² 3,2 km/h (1 Bft) 98,28 %
13.01.2026 05:38 7,4 °C 7,2 °C 3,9 °C 99 % 1010,8 hPa 0,0 l/m² 0 min 0 min 0 W/m² 3,2 km/h (1 Bft) 97,78 %
13.01.2026 05:40 7,4 °C 7,2 °C 3,9 °C 99 % 1010,8 hPa 0,0 l/m² 0 min 0 min 0 W/m² 3,2 km/h (1 Bft) 97,30 %
13.01.2026 05:42 7,5 °C 7,2 °C 3,9 °C 99 % 1010,8 hPa 0,0 l/m² 0 min 0 min 0 W/m² 6,4 km/h (2 Bft) 95,74 %
13.01.2026 05:44 7,5 °C 7,2 °C 3,9 °C 99 % 1010,7 hPa 0,0 l/m² 0 min 0 min 0 W/m² 0,0 km/h (0 Bft) 96,55 %
13.01.2026 05:46 7,5 °C 7,2 °C 3,9 °C 99 % 1010,8 hPa 0,0 l/m² 0 min 0 min 0 W/m² 3,2 km/h (1 Bft) 97,83 %
13.01.2026 05:48 7,5 °C 7,2 °C 3,9 °C 99 % 1010,8 hPa 0,0 l/m² 0 min 0 min 0 W/m² 3,2 km/h (1 Bft) 95,56 %
13.01.2026 05:50 7,5 °C 7,2 °C 3,9 °C 99 % 1010,7 hPa 0,0 l/m² 0 min 0 min 0 W/m² 3,2 km/h (1 Bft) 97,37 %
13.01.2026 05:52 7,5 °C 7,2 °C 3,9 °C 99 % 1010,8 hPa 0,0 l/m² 0 min 0 min 0 W/m² 3,2 km/h (1 Bft) 96,61 %
13.01.2026 05:54 7,5 °C 7,2 °C 3,9 °C 99 % 1010,8 hPa 0,0 l/m² 0 min 0 min 0 W/m² 0,0 km/h (0 Bft) 97,78 %
13.01.2026 05:56 7,5 °C 7,2 °C 3,9 °C 99 % 1010,7 hPa 0,0 l/m² 0 min 0 min 0 W/m² 0,0 km/h (0 Bft) 95,45 %
13.01.2026 05:58 7,5 °C 7,2 °C 3,9 °C 99 % 1010,7 hPa 0,0 l/m² 0 min 0 min 0 W/m² 0,0 km/h (0 Bft) 97,50 %
13.01.2026 06:00 7,5 °C 7,2 °C 3,9 °C 99 % 1010,7 hPa 0,0 l/m² 0 min 0 min 0 W/m² 0,0 km/h (0 Bft) 98,28 %
13.01.2026 06:02 7,5 °C 7,2 °C 3,9 °C 99 % 1010,7 hPa 0,0 l/m² 0 min 0 min 0 W/m² 3,2 km/h (1 Bft) 95,74 %
13.01.2026 06:04 7,5 °C 7,2 °C 3,9 °C 99 % 1010,7 hPa 0,0 l/m² 0 min 0 min 0 W/m² 3,2 km/h (1 Bft) 100,00 %
13.01.2026 06:10 7,5 °C 6,7 °C 3,9 °C 99 % 1010,7 hPa 0,0 l/m² 0 min 0 min 0 W/m² 6,4 km/h (2 Bft) 99,29 %
13.01.2026 06:12 7,5 °C 6,7 °C 3,9 °C 99 % 1010,8 hPa 0,0 l/m² 0 min 0 min 0 W/m² 6,4 km/h (2 Bft) 100,00 %
13.01.2026 06:16 7,5 °C 6,7 °C 3,9 °C 99 % 1010,8 hPa 0,0 l/m² 0 min 0 min 0 W/m² 6,4 km/h (2 Bft) 98,94 %
13.01.2026 06:18 7,5 °C 6,7 °C 3,9 °C 99 % 1010,8 hPa 0,0 l/m² 0 min 0 min 0 W/m² 3,2 km/h (1 Bft) 98,28 %
13.01.2026 06:20 7,4 °C 6,7 °C 3,9 °C 99 % 1010,8 hPa 0,0 l/m² 0 min 0 min 0 W/m² 3,2 km/h (1 Bft) 97,67 %
13.01.2026 06:22 7,4 °C 6,7 °C 3,9 °C 99 % 1010,8 hPa 0,0 l/m² 0 min 0 min 0 W/m² 6,4 km/h (2 Bft) 97,44 %
13.01.2026 06:24 7,4 °C 6,7 °C 3,9 °C 99 % 1010,8 hPa 0,0 l/m² 0 min 0 min 0 W/m² 6,4 km/h (2 Bft) 94,92 %
13.01.2026 06:26 7,4 °C 6,7 °C 3,9 °C 99 % 1010,8 hPa 0,0 l/m² 0 min 0 min 0 W/m² 6,4 km/h (2 Bft) 93,02 %
13.01.2026 06:28 7,4 °C 6,7 °C 3,9 °C 99 % 1010,9 hPa 0,0 l/m² 0 min 0 min 0 W/m² 6,4 km/h (2 Bft) 92,31 %
13.01.2026 06:30 7,4 °C 6,7 °C 3,9 °C 99 % 1010,9 hPa 0,0 l/m² 0 min 0 min 0 W/m² 3,2 km/h (1 Bft) 94,83 %
13.01.2026 06:32 7,4 °C 6,7 °C 3,9 °C 99 % 1010,8 hPa 0,0 l/m² 0 min 0 min 0 W/m² 6,4 km/h (2 Bft) 95,45 %
13.01.2026 06:34 7,4 °C 6,7 °C 3,9 °C 99 % 1010,9 hPa 0,0 l/m² 0 min 0 min 0 W/m² 6,4 km/h (2 Bft) 94,74 %
13.01.2026 06:36 7,3 °C 6,7 °C 3,9 °C 99 % 1010,9 hPa 0,0 l/m² 0 min 0 min 0 W/m² 3,2 km/h (1 Bft) 94,92 %
13.01.2026 06:38 7,3 °C 6,7 °C 3,9 °C 99 % 1010,9 hPa 0,0 l/m² 0 min 0 min 0 W/m² 3,2 km/h (1 Bft) 93,33 %
13.01.2026 06:40 7,3 °C 6,7 °C 3,9 °C 99 % 1010,9 hPa 0,0 l/m² 0 min 0 min 0 W/m² 3,2 km/h (1 Bft) 94,59 %
13.01.2026 06:42 7,3 °C 6,7 °C 3,9 °C 99 % 1010,9 hPa 0,0 l/m² 0 min 0 min 0 W/m² 6,4 km/h (2 Bft) 94,83 %
13.01.2026 06:44 7,3 °C 6,7 °C 3,9 °C 99 % 1010,9 hPa 0,0 l/m² 0 min 0 min 0 W/m² 3,2 km/h (1 Bft) 95,56 %
13.01.2026 06:46 7,3 °C 6,7 °C 3,9 °C 99 % 1010,9 hPa 0,0 l/m² 0 min 0 min 0 W/m² 0,0 km/h (0 Bft) 90,91 %
13.01.2026 06:48 7,3 °C 6,7 °C 3,9 °C 99 % 1011,0 hPa 0,0 l/m² 0 min 0 min 0 W/m² 0,0 km/h (0 Bft) 95,00 %
13.01.2026 06:50 7,3 °C 6,7 °C 3,9 °C 99 % 1011,0 hPa 0,0 l/m² 0 min 0 min 0 W/m² 6,4 km/h (2 Bft) 93,22 %
13.01.2026 06:52 7,3 °C 6,7 °C 3,9 °C 99 % 1011,0 hPa 0,0 l/m² 0 min 0 min 0 W/m² 6,4 km/h (2 Bft) 95,45 %
13.01.2026 06:54 7,3 °C 6,7 °C 3,9 °C 99 % 1010,9 hPa 0,0 l/m² 0 min 0 min 0 W/m² 6,4 km/h (2 Bft) 93,33 %
13.01.2026 06:56 7,3 °C 6,7 °C 3,9 °C 99 % 1011,0 hPa 0,0 l/m² 0 min 0 min 0 W/m² 6,4 km/h (2 Bft) 92,50 %
13.01.2026 06:58 7,3 °C 6,7 °C 3,9 °C 99 % 1011,0 hPa 0,0 l/m² 0 min 0 min 0 W/m² 6,4 km/h (2 Bft) 93,48 %
13.01.2026 07:00 7,3 °C 6,7 °C 3,9 °C 99 % 1011,0 hPa 0,0 l/m² 0 min 0 min 0 W/m² 6,4 km/h (2 Bft) 91,49 %
13.01.2026 07:02 7,3 °C 6,7 °C 3,9 °C 99 % 1011,0 hPa 0,0 l/m² 0 min 0 min 0 W/m² 0,0 km/h (0 Bft) 96,61 %
13.01.2026 07:04 7,3 °C 6,7 °C 3,9 °C 99 % 1011,1 hPa 0,0 l/m² 0 min 0 min 0 W/m² 3,2 km/h (1 Bft) 95,45 %
13.01.2026 07:06 7,3 °C 6,7 °C 3,9 °C 99 % 1011,0 hPa 0,0 l/m² 0 min 0 min 0 W/m² 3,2 km/h (1 Bft) 95,45 %
13.01.2026 07:08 7,3 °C 6,7 °C 3,9 °C 99 % 1011,1 hPa 0,0 l/m² 0 min 0 min 0 W/m² 3,2 km/h (1 Bft) 95,12 %
13.01.2026 07:10 7,3 °C 6,7 °C 3,9 °C 99 % 1011,1 hPa 0,0 l/m² 0 min 0 min 0 W/m² 6,4 km/h (2 Bft) 100,00 %
13.01.2026 07:12 7,3 °C 6,7 °C 3,9 °C 99 % 1011,1 hPa 0,0 l/m² 0 min 0 min 0 W/m² 3,2 km/h (1 Bft) 97,67 %
13.01.2026 07:14 7,3 °C 6,7 °C 3,9 °C 99 % 1011,2 hPa 0,0 l/m² 0 min 0 min 0 W/m² 6,4 km/h (2 Bft) 100,00 %
13.01.2026 07:16 7,3 °C 6,7 °C 3,9 °C 99 % 1011,2 hPa 0,0 l/m² 0 min 0 min 0 W/m² 6,4 km/h (2 Bft) 98,21 %
13.01.2026 07:18 7,3 °C 6,7 °C 3,9 °C 99 % 1011,2 hPa 0,0 l/m² 0 min 0 min 0 W/m² 3,2 km/h (1 Bft) 100,00 %
13.01.2026 07:20 7,3 °C 6,7 °C 3,9 °C 99 % 1011,2 hPa 0,0 l/m² 0 min 0 min 0 W/m² 6,4 km/h (2 Bft) 100,00 %
13.01.2026 07:22 7,3 °C 6,7 °C 3,9 °C 99 % 1011,2 hPa 0,0 l/m² 0 min 0 min 0 W/m² 3,2 km/h (1 Bft) 100,00 %
13.01.2026 07:24 7,3 °C 6,7 °C 3,9 °C 99 % 1011,2 hPa 0,0 l/m² 0 min 0 min 0 W/m² 3,2 km/h (1 Bft) 98,08 %
13.01.2026 07:26 7,3 °C 6,7 °C 3,9 °C 99 % 1011,2 hPa 0,0 l/m² 0 min 0 min 0 W/m² 12,9 km/h (3 Bft) 97,73 %
13.01.2026 07:28 7,3 °C 6,7 °C 3,9 °C 99 % 1011,1 hPa 0,0 l/m² 0 min 0 min 0 W/m² 6,4 km/h (2 Bft) 94,74 %
13.01.2026 07:30 7,3 °C 6,7 °C 3,9 °C 99 % 1011,2 hPa 0,0 l/m² 0 min 0 min 0 W/m² 3,2 km/h (1 Bft) 98,25 %
13.01.2026 07:32 7,3 °C 6,7 °C 3,9 °C 99 % 1011,2 hPa 0,0 l/m² 0 min 0 min 0 W/m² 3,2 km/h (1 Bft) 91,89 %
13.01.2026 07:34 7,3 °C 6,7 °C 3,9 °C 99 % 1011,1 hPa 0,0 l/m² 0 min 0 min 0 W/m² 3,2 km/h (1 Bft) 98,28 %
13.01.2026 07:36 7,3 °C 6,7 °C 3,9 °C 99 % 1011,1 hPa 0,0 l/m² 0 min 0 min 0 W/m² 6,4 km/h (2 Bft) 97,73 %
13.01.2026 07:38 7,3 °C 6,7 °C 3,9 °C 99 % 1011,1 hPa 0,0 l/m² 0 min 0 min 0 W/m² 3,2 km/h (1 Bft) 97,37 %
13.01.2026 07:40 7,3 °C 6,7 °C 3,9 °C 99 % 1011,1 hPa 0,0 l/m² 0 min 0 min 0 W/m² 6,4 km/h (2 Bft) 98,25 %
13.01.2026 07:42 7,3 °C 6,7 °C 3,9 °C 99 % 1011,1 hPa 0,0 l/m² 0 min 0 min 0 W/m² 6,4 km/h (2 Bft) 95,65 %
13.01.2026 07:44 7,3 °C 6,7 °C 3,9 °C 99 % 1011,1 hPa 0,0 l/m² 0 min 0 min 0 W/m² 3,2 km/h (1 Bft) 97,37 %
13.01.2026 07:46 7,3 °C 6,7 °C 3,9 °C 99 % 1011,1 hPa 0,0 l/m² 0 min 0 min 0 W/m² 3,2 km/h (1 Bft) 98,15 %
13.01.2026 07:48 7,3 °C 6,7 °C 3,9 °C 99 % 1011,1 hPa 0,0 l/m² 0 min 0 min 0 W/m² 3,2 km/h (1 Bft) 98,04 %
13.01.2026 07:50 7,3 °C 6,7 °C 3,9 °C 99 % 1011,0 hPa 0,0 l/m² 0 min 0 min 0 W/m² 0,0 km/h (0 Bft) 97,14 %
13.01.2026 07:52 7,3 °C 6,7 °C 3,9 °C 99 % 1011,0 hPa 0,0 l/m² 0 min 0 min 0 W/m² 6,4 km/h (2 Bft) 96,30 %
13.01.2026 07:54 7,3 °C 6,7 °C 3,9 °C 99 % 1011,1 hPa 0,0 l/m² 0 min 0 min 0 W/m² 3,2 km/h (1 Bft) 98,04 %
13.01.2026 07:56 7,3 °C 6,7 °C 3,9 °C 99 % 1011,1 hPa 0,0 l/m² 0 min 0 min 0 W/m² 6,4 km/h (2 Bft) 94,44 %
13.01.2026 08:00 7,3 °C 6,7 °C 3,9 °C 99 % 1011,1 hPa 0,0 l/m² 0 min 0 min 0 W/m² 6,4 km/h (2 Bft) 100,00 %
13.01.2026 08:02 7,3 °C 6,7 °C 3,9 °C 99 % 1011,1 hPa 0,0 l/m² 0 min 0 min 0 W/m² 3,2 km/h (1 Bft) 97,30 %
13.01.2026 08:04 7,3 °C 6,7 °C 3,9 °C 99 % 1011,1 hPa 0,0 l/m² 0 min 0 min 0 W/m² 3,2 km/h (1 Bft) 100,00 %
13.01.2026 08:08 7,3 °C 6,7 °C 3,9 °C 99 % 1011,2 hPa 0,0 l/m² 0 min 0 min 0 W/m² 3,2 km/h (1 Bft) 98,92 %
13.01.2026 08:09 7,2 °C 6,7 °C 3,9 °C 99 % 1011,2 hPa 0,0 l/m² 0 min 0 min 0 W/m² 3,2 km/h (1 Bft) 100,00 %
13.01.2026 08:10 7,2 °C 6,7 °C 3,9 °C 99 % 1011,2 hPa 0,0 l/m² 0 min 0 min 0 W/m² 6,4 km/h (2 Bft) 100,00 %
13.01.2026 08:14 7,2 °C 6,7 °C 3,9 °C 99 % 1011,2 hPa 0,0 l/m² 0 min 0 min 0 W/m² 3,2 km/h (1 Bft) 97,96 %
13.01.2026 08:16 7,2 °C 6,7 °C 3,9 °C 99 % 1011,2 hPa 0,0 l/m² 0 min 0 min 0 W/m² 3,2 km/h (1 Bft) 100,00 %
13.01.2026 08:18 7,2 °C 6,7 °C 3,9 °C 99 % 1011,2 hPa 0,0 l/m² 0 min 0 min 0 W/m² 6,4 km/h (2 Bft) 100,00 %
13.01.2026 08:22 7,2 °C 6,7 °C 3,9 °C 99 % 1011,2 hPa 0,0 l/m² 0 min 0 min 0 W/m² 6,4 km/h (2 Bft) 100,00 %
13.01.2026 08:24 7,2 °C 6,7 °C 3,9 °C 99 % 1011,2 hPa 0,0 l/m² 0 min 0 min 0 W/m² 12,9 km/h (3 Bft) 97,50 %
13.01.2026 08:26 7,2 °C 6,7 °C 3,9 °C 99 % 1011,2 hPa 0,0 l/m² 0 min 0 min 0 W/m² 3,2 km/h (1 Bft) 100,00 %
13.01.2026 08:28 7,2 °C 6,7 °C 3,9 °C 99 % 1011,2 hPa 0,0 l/m² 0 min 0 min 0 W/m² 6,4 km/h (2 Bft) 100,00 %
13.01.2026 08:30 7,2 °C 6,7 °C 3,9 °C 99 % 1011,3 hPa 0,0 l/m² 0 min 0 min 0 W/m² 12,9 km/h (3 Bft) 100,00 %
13.01.2026 08:32 7,2 °C 6,7 °C 3,9 °C 99 % 1011,3 hPa 0,0 l/m² 0 min 0 min 0 W/m² 12,9 km/h (3 Bft) 100,00 %
13.01.2026 08:34 7,2 °C 6,7 °C 3,9 °C 99 % 1011,3 hPa 0,0 l/m² 0 min 2 min 0 W/m² 6,4 km/h (2 Bft) 98,21 %
13.01.2026 08:36 7,2 °C 6,7 °C 3,9 °C 99 % 1011,3 hPa 0,2 l/m² 0 min 0 min 0 W/m² 6,4 km/h (2 Bft) 100,00 %
13.01.2026 08:38 7,2 °C 6,7 °C 3,9 °C 100 % 1011,3 hPa 0,0 l/m² 0 min 0 min 0 W/m² 9,7 km/h (2 Bft) 100,00 %
13.01.2026 08:40 7,3 °C 6,7 °C 3,9 °C 100 % 1011,3 hPa 0,0 l/m² 0 min 0 min 0 W/m² 6,4 km/h (2 Bft) 97,37 %
13.01.2026 08:42 7,3 °C 6,7 °C 4,4 °C 100 % 1011,3 hPa 0,0 l/m² 0 min 0 min 0 W/m² 6,4 km/h (2 Bft) 100,00 %
13.01.2026 08:44 7,3 °C 6,7 °C 4,4 °C 100 % 1011,3 hPa 0,0 l/m² 0 min 0 min 0 W/m² 12,9 km/h (3 Bft) 97,83 %
13.01.2026 08:46 7,3 °C 6,7 °C 4,4 °C 100 % 1011,3 hPa 0,0 l/m² 0 min 0 min 0 W/m² 9,7 km/h (2 Bft) 97,78 %
13.01.2026 08:48 7,3 °C 6,7 °C 4,4 °C 100 % 1011,3 hPa 0,0 l/m² 0 min 0 min 0 W/m² 12,9 km/h (3 Bft) 100,00 %
13.01.2026 08:50 7,3 °C 6,7 °C 4,4 °C 100 % 1011,3 hPa 0,0 l/m² 0 min 0 min 0 W/m² 6,4 km/h (2 Bft) 96,00 %
13.01.2026 08:52 7,3 °C 6,7 °C 4,4 °C 100 % 1011,3 hPa 0,0 l/m² 0 min 0 min 0 W/m² 3,2 km/h (1 Bft) 100,00 %
13.01.2026 08:54 7,4 °C 6,7 °C 4,4 °C 100 % 1011,4 hPa 0,0 l/m² 0 min 0 min 0 W/m² 9,7 km/h (2 Bft) 100,00 %
13.01.2026 08:56 7,4 °C 6,7 °C 4,4 °C 100 % 1011,4 hPa 0,0 l/m² 0 min 0 min 0 W/m² 6,4 km/h (2 Bft) 100,00 %
13.01.2026 08:58 7,4 °C 6,7 °C 4,4 °C 99 % 1011,3 hPa 0,0 l/m² 0 min 0 min 0 W/m² 12,9 km/h (3 Bft) 100,00 %
13.01.2026 09:00 7,4 °C 6,7 °C 4,4 °C 99 % 1011,3 hPa 0,0 l/m² 0 min 0 min 2 W/m² 6,4 km/h (2 Bft) 97,92 %
13.01.2026 09:02 7,4 °C 6,7 °C 4,4 °C 99 % 1011,3 hPa 0,0 l/m² 0 min 0 min 5 W/m² 12,9 km/h (3 Bft) 97,92 %
13.01.2026 09:04 7,4 °C 6,7 °C 4,4 °C 99 % 1011,3 hPa 0,0 l/m² 0 min 0 min 5 W/m² 6,4 km/h (2 Bft) 97,78 %
13.01.2026 09:07 7,4 °C 6,7 °C 4,4 °C 99 % 1011,4 hPa 0,0 l/m² 0 min 0 min 5 W/m² 12,9 km/h (3 Bft) 97,40 %
13.01.2026 09:08 7,4 °C 6,7 °C 4,4 °C 99 % 1011,4 hPa 0,0 l/m² 0 min 0 min 5 W/m² 6,4 km/h (2 Bft) 95,65 %
13.01.2026 09:12 7,4 °C 6,7 °C 4,4 °C 99 % 1011,3 hPa 0,0 l/m² 0 min 0 min 5 W/m² 12,9 km/h (3 Bft) 97,87 %
13.01.2026 09:14 7,4 °C 6,7 °C 4,4 °C 99 % 1011,4 hPa 0,0 l/m² 0 min 0 min 6 W/m² 6,4 km/h (2 Bft) 97,83 %
13.01.2026 09:16 7,4 °C 6,7 °C 4,4 °C 99 % 1011,4 hPa 0,0 l/m² 0 min 0 min 7 W/m² 6,4 km/h (2 Bft) 96,15 %
13.01.2026 09:18 7,4 °C 6,7 °C 4,4 °C 99 % 1011,3 hPa 0,0 l/m² 0 min 0 min 10 W/m² 12,9 km/h (3 Bft) 95,65 %
13.01.2026 09:20 7,4 °C 6,7 °C 4,4 °C 99 % 1011,3 hPa 0,0 l/m² 0 min 0 min 20 W/m² 6,4 km/h (2 Bft) 90,70 %
13.01.2026 09:22 7,4 °C 6,7 °C 4,4 °C 99 % 1011,3 hPa 0,2 l/m² 0 min 0 min 33 W/m² 12,9 km/h (3 Bft) 92,31 %
13.01.2026 09:24 7,4 °C 6,7 °C 4,4 °C 99 % 1011,2 hPa 0,0 l/m² 0 min 0 min 36 W/m² 3,2 km/h (1 Bft) 96,49 %
13.01.2026 09:26 7,4 °C 6,7 °C 4,4 °C 99 % 1011,2 hPa 0,0 l/m² 0 min 0 min 33 W/m² 6,4 km/h (2 Bft) 93,75 %
13.01.2026 09:28 7,4 °C 6,7 °C 4,4 °C 99 % 1011,3 hPa 0,0 l/m² 0 min 0 min 38 W/m² 6,4 km/h (2 Bft) 91,67 %
13.01.2026 09:30 7,4 °C 6,7 °C 4,4 °C 99 % 1011,3 hPa 0,0 l/m² 0 min 0 min 36 W/m² 6,4 km/h (2 Bft) 97,14 %
13.01.2026 09:32 7,4 °C 6,7 °C 4,4 °C 99 % 1011,4 hPa 0,0 l/m² 0 min 0 min 28 W/m² 6,4 km/h (2 Bft) 90,91 %
13.01.2026 09:34 7,5 °C 6,7 °C 4,4 °C 99 % 1011,3 hPa 0,0 l/m² 0 min 0 min 29 W/m² 3,2 km/h (1 Bft) 92,00 %
13.01.2026 09:36 7,5 °C 6,7 °C 4,4 °C 99 % 1011,3 hPa 0,0 l/m² 0 min 0 min 35 W/m² 3,2 km/h (1 Bft) 93,62 %
13.01.2026 09:38 7,5 °C 6,7 °C 4,4 °C 99 % 1011,3 hPa 0,0 l/m² 0 min 0 min 41 W/m² 6,4 km/h (2 Bft) 93,62 %
13.01.2026 09:40 7,5 °C 6,7 °C 4,4 °C 99 % 1011,3 hPa 0,0 l/m² 0 min 0 min 36 W/m² 12,9 km/h (3 Bft) 92,68 %
13.01.2026 09:42 7,5 °C 7,2 °C 4,4 °C 99 % 1011,4 hPa 0,0 l/m² 0 min 0 min 27 W/m² 6,4 km/h (2 Bft) 94,12 %
13.01.2026 09:44 7,6 °C 6,7 °C 4,4 °C 99 % 1011,4 hPa 0,0 l/m² 0 min 0 min 23 W/m² 6,4 km/h (2 Bft) 97,67 %
13.01.2026 09:46 7,6 °C 6,7 °C 4,4 °C 99 % 1011,4 hPa 0,0 l/m² 0 min 0 min 19 W/m² 6,4 km/h (2 Bft) 91,67 %
13.01.2026 09:48 7,6 °C 6,7 °C 4,4 °C 99 % 1011,4 hPa 0,0 l/m² 0 min 0 min 15 W/m² 12,9 km/h (3 Bft) 97,96 %
13.01.2026 09:50 7,6 °C 6,7 °C 4,4 °C 99 % 1011,5 hPa 0,0 l/m² 0 min 0 min 12 W/m² 6,4 km/h (2 Bft) 95,74 %
13.01.2026 09:56 7,6 °C 7,2 °C 4,4 °C 99 % 1011,4 hPa 0,0 l/m² 0 min 0 min 21 W/m² 12,9 km/h (3 Bft) 98,28 %
13.01.2026 09:57 7,6 °C 7,2 °C 4,4 °C 99 % 1011,3 hPa 0,0 l/m² 0 min 0 min 39 W/m² 6,4 km/h (2 Bft) 95,83 %
13.01.2026 09:58 7,6 °C 7,2 °C 4,4 °C 99 % 1011,3 hPa 0,0 l/m² 0 min 0 min 40 W/m² 6,4 km/h (2 Bft) 97,56 %
13.01.2026 10:02 7,6 °C 7,2 °C 4,4 °C 100 % 1011,3 hPa 0,0 l/m² 0 min 0 min 40 W/m² 12,9 km/h (3 Bft) 97,87 %
13.01.2026 10:04 7,6 °C 7,2 °C 4,4 °C 100 % 1011,3 hPa 0,0 l/m² 0 min 0 min 40 W/m² 6,4 km/h (2 Bft) 95,74 %
13.01.2026 10:08 7,6 °C 7,2 °C 4,4 °C 100 % 1011,3 hPa 0,0 l/m² 0 min 0 min 38 W/m² 16,1 km/h (3 Bft) 97,85 %
13.01.2026 10:10 7,6 °C 7,2 °C 4,4 °C 100 % 1011,3 hPa 0,0 l/m² 0 min 0 min 24 W/m² 9,7 km/h (2 Bft) 100,00 %
13.01.2026 10:12 7,6 °C 7,2 °C 4,4 °C 100 % 1011,3 hPa 0,0 l/m² 0 min 0 min 24 W/m² 3,2 km/h (1 Bft) 97,87 %
13.01.2026 10:14 7,6 °C 7,2 °C 4,4 °C 100 % 1011,3 hPa 0,0 l/m² 0 min 0 min 23 W/m² 6,4 km/h (2 Bft) 100,00 %
13.01.2026 10:16 7,6 °C 7,2 °C 4,4 °C 100 % 1011,3 hPa 0,0 l/m² 0 min 0 min 21 W/m² 9,7 km/h (2 Bft) 100,00 %
13.01.2026 10:18 7,6 °C 7,2 °C 4,4 °C 100 % 1011,3 hPa 0,0 l/m² 0 min 0 min 26 W/m² 12,9 km/h (3 Bft) 97,92 %
13.01.2026 10:20 7,6 °C 7,2 °C 4,4 °C 100 % 1011,4 hPa 0,0 l/m² 0 min 0 min 25 W/m² 9,7 km/h (2 Bft) 100,00 %
13.01.2026 10:22 7,6 °C 7,2 °C 4,4 °C 100 % 1011,4 hPa 0,0 l/m² 0 min 0 min 22 W/m² 12,9 km/h (3 Bft) 100,00 %
13.01.2026 10:24 7,6 °C 7,2 °C 4,4 °C 100 % 1011,4 hPa 0,0 l/m² 0 min 0 min 23 W/m² 12,9 km/h (3 Bft) 100,00 %
13.01.2026 10:26 7,6 °C 7,2 °C 4,4 °C 100 % 1011,4 hPa 0,0 l/m² 0 min 0 min 30 W/m² 6,4 km/h (2 Bft) 100,00 %
13.01.2026 10:28 7,6 °C 7,2 °C 4,4 °C 100 % 1011,4 hPa 0,0 l/m² 0 min 0 min 37 W/m² 6,4 km/h (2 Bft) 97,96 %
13.01.2026 10:30 7,6 °C 7,2 °C 4,4 °C 100 % 1011,4 hPa 0,0 l/m² 0 min 0 min 50 W/m² 12,9 km/h (3 Bft) 100,00 %
13.01.2026 10:32 7,6 °C 7,2 °C 4,4 °C 100 % 1011,4 hPa 0,0 l/m² 0 min 0 min 50 W/m² 19,3 km/h (3 Bft) 100,00 %
13.01.2026 10:34 7,7 °C 7,2 °C 4,4 °C 100 % 1011,3 hPa 0,0 l/m² 0 min 0 min 64 W/m² 12,9 km/h (3 Bft) 100,00 %
13.01.2026 10:36 7,7 °C 7,8 °C 5,0 °C 100 % 1011,3 hPa 0,0 l/m² 0 min 0 min 75 W/m² 16,1 km/h (3 Bft) 100,00 %
13.01.2026 10:38 7,7 °C 7,8 °C 5,0 °C 100 % 1011,4 hPa 0,0 l/m² 0 min 0 min 76 W/m² 9,7 km/h (2 Bft) 100,00 %
13.01.2026 10:40 7,7 °C 7,8 °C 5,0 °C 100 % 1011,3 hPa 0,0 l/m² 0 min 0 min 69 W/m² 6,4 km/h (2 Bft) 100,00 %
13.01.2026 10:42 7,7 °C 7,8 °C 5,0 °C 100 % 1011,3 hPa 0,0 l/m² 0 min 0 min 67 W/m² 12,9 km/h (3 Bft) 100,00 %
13.01.2026 10:44 7,8 °C 7,8 °C 5,0 °C 100 % 1011,4 hPa 0,0 l/m² 0 min 0 min 55 W/m² 12,9 km/h (3 Bft) 100,00 %
13.01.2026 10:46 7,8 °C 7,8 °C 5,0 °C 100 % 1011,5 hPa 0,0 l/m² 0 min 0 min 45 W/m² 12,9 km/h (3 Bft) 100,00 %
13.01.2026 10:48 7,8 °C 7,8 °C 5,0 °C 100 % 1011,5 hPa 0,0 l/m² 0 min 0 min 44 W/m² 12,9 km/h (3 Bft) 100,00 %
13.01.2026 10:50 7,8 °C 7,8 °C 5,0 °C 100 % 1011,4 hPa 0,0 l/m² 0 min 0 min 47 W/m² 12,9 km/h (3 Bft) 100,00 %
13.01.2026 10:52 7,8 °C 7,8 °C 5,0 °C 100 % 1011,4 hPa 0,0 l/m² 0 min 0 min 46 W/m² 16,1 km/h (3 Bft) 100,00 %
13.01.2026 10:54 7,8 °C 7,8 °C 5,0 °C 100 % 1011,5 hPa 0,0 l/m² 0 min 0 min 42 W/m² 16,1 km/h (3 Bft) 97,83 %
13.01.2026 10:56 7,8 °C 7,8 °C 5,0 °C 100 % 1011,5 hPa 0,0 l/m² 0 min 0 min 48 W/m² 6,4 km/h (2 Bft) 100,00 %
13.01.2026 10:58 7,9 °C 7,8 °C 5,0 °C 100 % 1011,5 hPa 0,0 l/m² 0 min 0 min 55 W/m² 9,7 km/h (2 Bft) 97,87 %
13.01.2026 11:00 7,9 °C 7,8 °C 5,0 °C 100 % 1011,4 hPa 0,0 l/m² 0 min 0 min 68 W/m² 6,4 km/h (2 Bft) 100,00 %
13.01.2026 11:02 7,9 °C 8,3 °C 5,0 °C 100 % 1011,4 hPa 0,0 l/m² 0 min 0 min 109 W/m² 6,4 km/h (2 Bft) 100,00 %
13.01.2026 11:04 7,9 °C 8,3 °C 5,0 °C 100 % 1011,3 hPa 0,0 l/m² 2 min 0 min 147 W/m² 16,1 km/h (3 Bft) 100,00 %
13.01.2026 11:08 8,0 °C 8,3 °C 5,0 °C 100 % 1011,2 hPa 0,0 l/m² 0 min 0 min 98 W/m² 12,9 km/h (3 Bft) 98,84 %
13.01.2026 11:10 8,1 °C 8,3 °C 5,0 °C 100 % 1011,2 hPa 0,0 l/m² 0 min 0 min 90 W/m² 6,4 km/h (2 Bft) 100,00 %
13.01.2026 11:12 8,1 °C 8,3 °C 5,0 °C 100 % 1011,3 hPa 0,0 l/m² 0 min 0 min 83 W/m² 12,9 km/h (3 Bft) 100,00 %
13.01.2026 11:14 8,1 °C 8,3 °C 5,0 °C 100 % 1011,3 hPa 0,0 l/m² 0 min 0 min 76 W/m² 6,4 km/h (2 Bft) 100,00 %
13.01.2026 11:16 8,1 °C 8,3 °C 5,0 °C 100 % 1011,3 hPa 0,0 l/m² 0 min 0 min 80 W/m² 9,7 km/h (2 Bft) 100,00 %
13.01.2026 11:18 8,2 °C 8,3 °C 5,6 °C 100 % 1011,2 hPa 0,0 l/m² 0 min 0 min 92 W/m² 12,9 km/h (3 Bft) 97,73 %
13.01.2026 11:20 8,2 °C 8,3 °C 5,0 °C 100 % 1011,3 hPa 0,0 l/m² 0 min 0 min 79 W/m² 16,1 km/h (3 Bft) 97,56 %
13.01.2026 11:22 8,2 °C 8,3 °C 5,6 °C 100 % 1011,3 hPa 0,0 l/m² 0 min 0 min 78 W/m² 9,7 km/h (2 Bft) 97,87 %
13.01.2026 11:24 8,2 °C 8,3 °C 5,6 °C 100 % 1011,4 hPa 0,0 l/m² 0 min 0 min 66 W/m² 9,7 km/h (2 Bft) 98,31 %
13.01.2026 11:26 8,2 °C 8,3 °C 5,6 °C 100 % 1011,4 hPa 0,0 l/m² 0 min 0 min 56 W/m² 6,4 km/h (2 Bft) 95,56 %
13.01.2026 11:28 8,3 °C 8,3 °C 5,6 °C 100 % 1011,4 hPa 0,0 l/m² 0 min 0 min 56 W/m² 9,7 km/h (2 Bft) 97,83 %
13.01.2026 11:30 8,3 °C 8,3 °C 5,6 °C 100 % 1011,4 hPa 0,0 l/m² 0 min 0 min 62 W/m² 12,9 km/h (3 Bft) 97,73 %
13.01.2026 11:32 8,3 °C 8,3 °C 5,6 °C 100 % 1011,4 hPa 0,0 l/m² 0 min 0 min 71 W/m² 16,1 km/h (3 Bft) 97,83 %
13.01.2026 11:34 8,3 °C 8,3 °C 5,6 °C 100 % 1011,4 hPa 0,0 l/m² 0 min 0 min 70 W/m² 12,9 km/h (3 Bft) 97,56 %
13.01.2026 11:36 8,3 °C 8,3 °C 5,6 °C 100 % 1011,4 hPa 0,0 l/m² 0 min 0 min 79 W/m² 9,7 km/h (2 Bft) 95,74 %
13.01.2026 11:38 8,4 °C 8,9 °C 5,6 °C 100 % 1011,4 hPa 0,0 l/m² 0 min 0 min 80 W/m² 12,9 km/h (3 Bft) 95,74 %
13.01.2026 11:40 8,4 °C 8,9 °C 5,6 °C 100 % 1011,4 hPa 0,0 l/m² 0 min 0 min 68 W/m² 12,9 km/h (3 Bft) 94,83 %
13.01.2026 11:42 8,4 °C 8,9 °C 5,6 °C 100 % 1011,4 hPa 0,0 l/m² 0 min 0 min 70 W/m² 9,7 km/h (2 Bft) 95,56 %
13.01.2026 11:44 8,4 °C 8,9 °C 5,6 °C 100 % 1011,3 hPa 0,0 l/m² 0 min 0 min 76 W/m² 16,1 km/h (3 Bft) 95,45 %
13.01.2026 11:46 8,4 °C 8,9 °C 5,6 °C 100 % 1011,2 hPa 0,0 l/m² 0 min 0 min 78 W/m² 16,1 km/h (3 Bft) 97,50 %
13.01.2026 11:48 8,5 °C 8,9 °C 5,6 °C 100 % 1011,2 hPa 0,0 l/m² 0 min 0 min 83 W/m² 16,1 km/h (3 Bft) 97,87 %
13.01.2026 11:50 8,5 °C 8,9 °C 5,6 °C 100 % 1011,3 hPa 0,0 l/m² 0 min 0 min 84 W/m² 12,9 km/h (3 Bft) 98,28 %
13.01.2026 11:52 8,5 °C 8,9 °C 5,6 °C 100 % 1011,3 hPa 0,0 l/m² 0 min 0 min 84 W/m² 12,9 km/h (3 Bft) 97,67 %
13.01.2026 11:54 8,6 °C 8,9 °C 5,6 °C 100 % 1011,2 hPa 0,0 l/m² 0 min 0 min 86 W/m² 16,1 km/h (3 Bft) 97,78 %
13.01.2026 11:56 8,6 °C 8,9 °C 5,6 °C 100 % 1011,2 hPa 0,0 l/m² 0 min 0 min 93 W/m² 12,9 km/h (3 Bft) 97,56 %
13.01.2026 11:58 8,6 °C 9,4 °C 5,6 °C 100 % 1011,1 hPa 0,0 l/m² 0 min 0 min 107 W/m² 9,7 km/h (2 Bft) 100,00 %
13.01.2026 12:00 8,6 °C 9,4 °C 5,6 °C 100 % 1011,1 hPa 0,0 l/m² 0 min 0 min 117 W/m² 12,9 km/h (3 Bft) 98,31 %
13.01.2026 12:02 8,6 °C 9,4 °C 5,6 °C 100 % 1011,1 hPa 0,0 l/m² 0 min 0 min 121 W/m² 6,4 km/h (2 Bft) 95,56 %
13.01.2026 12:04 8,7 °C 9,4 °C 5,6 °C 100 % 1011,0 hPa 0,0 l/m² 0 min 0 min 128 W/m² 12,9 km/h (3 Bft) 97,83 %
13.01.2026 12:08 8,8 °C 10,0 °C 6,1 °C 100 % 1010,9 hPa 0,0 l/m² 0 min 0 min 149 W/m² 16,1 km/h (3 Bft) 96,94 %
13.01.2026 12:12 8,8 °C 10,6 °C 6,1 °C 100 % 1010,9 hPa 0,0 l/m² 0 min 0 min 135 W/m² 16,1 km/h (3 Bft) 95,65 %
13.01.2026 12:16 8,9 °C 10,0 °C 6,1 °C 100 % 1010,8 hPa 0,0 l/m² 0 min 0 min 101 W/m² 16,1 km/h (3 Bft) 94,74 %
13.01.2026 12:18 8,9 °C 10,0 °C 6,1 °C 100 % 1010,8 hPa 0,0 l/m² 0 min 0 min 103 W/m² 9,7 km/h (2 Bft) 97,30 %
13.01.2026 12:20 8,9 °C 10,0 °C 6,1 °C 100 % 1010,8 hPa 0,0 l/m² 0 min 0 min 102 W/m² 9,7 km/h (2 Bft) 97,87 %
13.01.2026 12:22 9,0 °C 10,0 °C 6,1 °C 100 % 1010,8 hPa 0,0 l/m² 0 min 0 min 111 W/m² 12,9 km/h (3 Bft) 97,22 %
13.01.2026 12:24 9,0 °C 10,6 °C 6,1 °C 100 % 1010,8 hPa 0,0 l/m² 0 min 0 min 131 W/m² 6,4 km/h (2 Bft) 91,49 %
13.01.2026 12:26 9,1 °C 10,6 °C 6,1 °C 100 % 1010,7 hPa 0,0 l/m² 0 min 0 min 161 W/m² 9,7 km/h (2 Bft) 97,87 %
13.01.2026 12:28 9,1 °C 11,1 °C 6,1 °C 100 % 1010,7 hPa 0,0 l/m² 2 min 0 min 218 W/m² 6,4 km/h (2 Bft) 98,11 %
13.01.2026 12:30 9,1 °C 11,7 °C 6,7 °C 100 % 1010,7 hPa 0,0 l/m² 2 min 0 min 317 W/m² 16,1 km/h (3 Bft) 97,44 %
13.01.2026 12:32 9,2 °C 12,2 °C 6,7 °C 100 % 1010,7 hPa 0,0 l/m² 2 min 0 min 251 W/m² 16,1 km/h (3 Bft) 97,92 %
13.01.2026 12:34 9,3 °C 12,2 °C 6,7 °C 100 % 1010,6 hPa 0,0 l/m² 2 min 0 min 262 W/m² 6,4 km/h (2 Bft) 96,36 %
13.01.2026 12:36 9,3 °C 11,7 °C 6,7 °C 100 % 1010,7 hPa 0,0 l/m² 0 min 0 min 141 W/m² 9,7 km/h (2 Bft) 97,87 %
13.01.2026 12:38 9,4 °C 11,7 °C 6,7 °C 100 % 1010,6 hPa 0,0 l/m² 0 min 0 min 132 W/m² 6,4 km/h (2 Bft) 94,87 %
13.01.2026 12:40 9,4 °C 11,7 °C 6,7 °C 100 % 1010,6 hPa 0,0 l/m² 0 min 0 min 146 W/m² 16,1 km/h (3 Bft) 96,23 %
13.01.2026 12:42 9,5 °C 11,7 °C 6,7 °C 100 % 1010,5 hPa 0,0 l/m² 0 min 0 min 139 W/m² 12,9 km/h (3 Bft) 97,50 %
13.01.2026 12:44 9,5 °C 11,1 °C 6,7 °C 100 % 1010,6 hPa 0,0 l/m² 0 min 0 min 136 W/m² 6,4 km/h (2 Bft) 95,65 %
13.01.2026 12:46 9,6 °C 11,1 °C 6,7 °C 100 % 1010,7 hPa 0,0 l/m² 0 min 0 min 135 W/m² 9,7 km/h (2 Bft) 98,25 %
13.01.2026 12:48 9,6 °C 11,1 °C 6,7 °C 100 % 1010,6 hPa 0,0 l/m² 0 min 0 min 129 W/m² 9,7 km/h (2 Bft) 97,83 %
13.01.2026 12:50 9,6 °C 11,1 °C 6,7 °C 100 % 1010,6 hPa 0,0 l/m² 0 min 0 min 136 W/m² 6,4 km/h (2 Bft) 97,44 %
13.01.2026 12:52 9,6 °C 11,1 °C 6,7 °C 100 % 1010,5 hPa 0,0 l/m² 0 min 0 min 140 W/m² 16,1 km/h (3 Bft) 98,15 %
13.01.2026 12:54 9,6 °C 11,1 °C 6,7 °C 100 % 1010,5 hPa 0,0 l/m² 0 min 0 min 135 W/m² 12,9 km/h (3 Bft) 95,83 %
13.01.2026 12:56 9,6 °C 11,1 °C 6,7 °C 100 % 1010,5 hPa 0,0 l/m² 0 min 0 min 137 W/m² 6,4 km/h (2 Bft) 97,87 %
13.01.2026 12:58 9,6 °C 11,7 °C 6,7 °C 100 % 1010,4 hPa 0,0 l/m² 0 min 0 min 141 W/m² 12,9 km/h (3 Bft) 95,56 %
13.01.2026 13:00 9,7 °C 11,7 °C 6,7 °C 100 % 1010,4 hPa 0,0 l/m² 0 min 0 min 146 W/m² 6,4 km/h (2 Bft) 97,50 %
13.01.2026 13:02 9,7 °C 12,2 °C 6,7 °C 100 % 1010,4 hPa 0,0 l/m² 2 min 0 min 177 W/m² 6,4 km/h (2 Bft) 97,87 %
13.01.2026 13:04 9,7 °C 13,3 °C 6,7 °C 100 % 1010,3 hPa 0,0 l/m² 2 min 0 min 239 W/m² 9,7 km/h (2 Bft) 95,74 %
13.01.2026 13:08 9,9 °C 13,3 °C 7,2 °C 100 % 1010,4 hPa 0,0 l/m² 4 min 0 min 206 W/m² 6,4 km/h (2 Bft) 100,00 %
13.01.2026 13:10 9,9 °C 12,8 °C 7,2 °C 100 % 1010,4 hPa 0,0 l/m² 0 min 0 min 159 W/m² 6,4 km/h (2 Bft) 100,00 %
13.01.2026 13:12 9,9 °C 12,2 °C 7,2 °C 100 % 1010,4 hPa 0,0 l/m² 0 min 0 min 137 W/m² 6,4 km/h (2 Bft) 100,00 %
13.01.2026 13:14 9,9 °C 11,7 °C 7,2 °C 100 % 1010,4 hPa 0,0 l/m² 0 min 0 min 116 W/m² 9,7 km/h (2 Bft) 100,00 %
13.01.2026 13:16 10,0 °C 11,1 °C 7,2 °C 100 % 1010,4 hPa 0,0 l/m² 0 min 0 min 95 W/m² 12,9 km/h (3 Bft) 95,74 %
13.01.2026 13:18 10,0 °C 11,1 °C 7,2 °C 100 % 1010,3 hPa 0,0 l/m² 0 min 0 min 78 W/m² 16,1 km/h (3 Bft) 97,87 %
13.01.2026 13:20 10,0 °C 10,6 °C 7,2 °C 100 % 1010,4 hPa 0,0 l/m² 0 min 0 min 61 W/m² 6,4 km/h (2 Bft) 97,87 %
13.01.2026 13:22 10,0 °C 10,6 °C 6,7 °C 100 % 1010,3 hPa 0,0 l/m² 0 min 0 min 51 W/m² 12,9 km/h (3 Bft) 98,18 %
13.01.2026 13:24 9,9 °C 10,6 °C 6,7 °C 100 % 1010,3 hPa 0,0 l/m² 0 min 0 min 49 W/m² 6,4 km/h (2 Bft) 97,44 %
13.01.2026 13:26 9,9 °C 10,0 °C 6,7 °C 100 % 1010,3 hPa 0,0 l/m² 0 min 0 min 51 W/m² 9,7 km/h (2 Bft) 97,83 %
13.01.2026 13:28 9,9 °C 10,0 °C 6,7 °C 100 % 1010,3 hPa 0,0 l/m² 0 min 0 min 48 W/m² 6,4 km/h (2 Bft) 98,18 %
13.01.2026 13:30 9,9 °C 10,0 °C 6,7 °C 100 % 1010,3 hPa 0,0 l/m² 0 min 0 min 43 W/m² 9,7 km/h (2 Bft) 97,44 %
13.01.2026 13:32 9,9 °C 10,0 °C 6,7 °C 99 % 1010,3 hPa 0,0 l/m² 0 min 0 min 45 W/m² 12,9 km/h (3 Bft) 97,87 %
13.01.2026 13:34 9,9 °C 10,0 °C 6,7 °C 99 % 1010,3 hPa 0,0 l/m² 0 min 0 min 56 W/m² 12,9 km/h (3 Bft) 97,87 %
13.01.2026 13:36 9,8 °C 10,0 °C 6,7 °C 99 % 1010,3 hPa 0,0 l/m² 0 min 0 min 66 W/m² 6,4 km/h (2 Bft) 97,87 %
13.01.2026 13:38 9,8 °C 10,0 °C 6,7 °C 99 % 1010,2 hPa 0,0 l/m² 0 min 0 min 76 W/m² 6,4 km/h (2 Bft) 96,36 %
13.01.2026 13:40 9,8 °C 10,0 °C 6,7 °C 99 % 1010,1 hPa 0,0 l/m² 0 min 0 min 77 W/m² 3,2 km/h (1 Bft) 97,30 %
13.01.2026 13:42 9,8 °C 10,0 °C 6,7 °C 99 % 1010,1 hPa 0,0 l/m² 0 min 0 min 79 W/m² 12,9 km/h (3 Bft) 97,92 %
13.01.2026 13:44 9,8 °C 10,0 °C 6,7 °C 99 % 1010,2 hPa 0,0 l/m² 0 min 0 min 76 W/m² 12,9 km/h (3 Bft) 95,74 %
13.01.2026 13:46 9,9 °C 10,0 °C 6,7 °C 99 % 1010,1 hPa 0,0 l/m² 0 min 0 min 65 W/m² 3,2 km/h (1 Bft) 96,00 %
13.01.2026 13:48 9,9 °C 10,0 °C 6,7 °C 99 % 1010,0 hPa 0,0 l/m² 0 min 0 min 63 W/m² 0,0 km/h (0 Bft) 56,82 %
13.01.2026 13:50 9,9 °C 10,0 °C 6,7 °C 99 % 1010,1 hPa 0,0 l/m² 0 min 0 min 61 W/m² 6,4 km/h (2 Bft) 94,29 %
13.01.2026 13:52 9,9 °C 10,0 °C 6,7 °C 99 % 1010,0 hPa 0,0 l/m² 0 min 0 min 67 W/m² 12,9 km/h (3 Bft) 100,00 %
13.01.2026 13:54 9,9 °C 10,0 °C 6,7 °C 99 % 1010,0 hPa 0,0 l/m² 0 min 0 min 66 W/m² 6,4 km/h (2 Bft) 100,00 %
13.01.2026 13:56 9,9 °C 10,0 °C 6,7 °C 99 % 1010,0 hPa 0,0 l/m² 0 min 0 min 54 W/m² 6,4 km/h (2 Bft) 100,00 %
13.01.2026 13:58 9,9 °C 10,0 °C 6,7 °C 99 % 1010,0 hPa 0,0 l/m² 0 min 2 min 49 W/m² 6,4 km/h (2 Bft) 100,00 %
13.01.2026 14:02 9,9 °C 10,0 °C 6,7 °C 99 % 1009,9 hPa 0,0 l/m² 0 min 4 min 51 W/m² 12,9 km/h (3 Bft) 100,00 %
13.01.2026 14:04 9,9 °C 10,0 °C 6,7 °C 99 % 1009,9 hPa 0,0 l/m² 0 min 2 min 46 W/m² 6,4 km/h (2 Bft) 100,00 %
13.01.2026 14:08 9,9 °C 10,0 °C 6,7 °C 99 % 1009,9 hPa 0,0 l/m² 0 min 4 min 53 W/m² 6,4 km/h (2 Bft) 98,94 %
13.01.2026 14:12 9,9 °C 9,4 °C 6,7 °C 98 % 1009,8 hPa 0,0 l/m² 0 min 0 min 56 W/m² 12,9 km/h (3 Bft) 99,05 %
13.01.2026 14:16 9,9 °C 9,4 °C 6,7 °C 98 % 1009,7 hPa 0,0 l/m² 0 min 0 min 50 W/m² 16,1 km/h (3 Bft) 100,00 %
13.01.2026 14:18 9,9 °C 9,4 °C 6,7 °C 98 % 1009,7 hPa 0,0 l/m² 0 min 0 min 44 W/m² 6,4 km/h (2 Bft) 100,00 %
13.01.2026 14:20 9,9 °C 9,4 °C 6,7 °C 98 % 1009,7 hPa 0,0 l/m² 0 min 0 min 39 W/m² 6,4 km/h (2 Bft) 100,00 %
13.01.2026 14:22 9,9 °C 9,4 °C 6,7 °C 98 % 1009,7 hPa 0,0 l/m² 0 min 0 min 36 W/m² 12,9 km/h (3 Bft) 97,37 %
13.01.2026 14:24 9,9 °C 9,4 °C 6,7 °C 98 % 1009,7 hPa 0,0 l/m² 0 min 0 min 35 W/m² 12,9 km/h (3 Bft) 100,00 %
13.01.2026 14:26 9,9 °C 9,4 °C 6,7 °C 98 % 1009,6 hPa 0,0 l/m² 0 min 0 min 34 W/m² 6,4 km/h (2 Bft) 98,18 %
13.01.2026 14:28 9,8 °C 9,4 °C 6,7 °C 98 % 1009,6 hPa 0,0 l/m² 0 min 0 min 39 W/m² 12,9 km/h (3 Bft) 97,37 %
13.01.2026 14:30 9,8 °C 9,4 °C 6,7 °C 98 % 1009,6 hPa 0,0 l/m² 0 min 0 min 45 W/m² 6,4 km/h (2 Bft) 98,15 %
13.01.2026 14:32 9,8 °C 9,4 °C 6,7 °C 98 % 1009,6 hPa 0,0 l/m² 0 min 0 min 51 W/m² 16,1 km/h (3 Bft) 97,50 %
13.01.2026 14:34 9,8 °C 9,4 °C 6,7 °C 98 % 1009,6 hPa 0,0 l/m² 0 min 0 min 53 W/m² 12,9 km/h (3 Bft) 96,49 %
13.01.2026 14:36 9,8 °C 9,4 °C 6,7 °C 97 % 1009,6 hPa 0,0 l/m² 0 min 0 min 53 W/m² 3,2 km/h (1 Bft) 97,83 %
13.01.2026 14:38 9,8 °C 9,4 °C 6,7 °C 97 % 1009,6 hPa 0,0 l/m² 0 min 0 min 62 W/m² 3,2 km/h (1 Bft) 100,00 %
13.01.2026 14:40 9,8 °C 10,0 °C 6,7 °C 97 % 1009,6 hPa 0,0 l/m² 0 min 0 min 66 W/m² 6,4 km/h (2 Bft) 95,74 %
13.01.2026 14:42 9,8 °C 10,0 °C 6,7 °C 97 % 1009,6 hPa 0,0 l/m² 0 min 0 min 55 W/m² 12,9 km/h (3 Bft) 96,49 %
13.01.2026 14:44 9,8 °C 10,0 °C 6,7 °C 97 % 1009,5 hPa 0,0 l/m² 0 min 0 min 41 W/m² 3,2 km/h (1 Bft) 97,78 %
13.01.2026 14:46 9,8 °C 10,0 °C 6,7 °C 97 % 1009,6 hPa 0,0 l/m² 0 min 0 min 42 W/m² 3,2 km/h (1 Bft) 97,87 %
13.01.2026 14:48 9,8 °C 10,0 °C 6,7 °C 97 % 1009,5 hPa 0,0 l/m² 0 min 0 min 47 W/m² 6,4 km/h (2 Bft) 97,37 %
13.01.2026 14:50 9,8 °C 10,0 °C 6,7 °C 97 % 1009,5 hPa 0,0 l/m² 0 min 0 min 51 W/m² 6,4 km/h (2 Bft) 97,87 %
13.01.2026 14:54 9,8 °C 10,0 °C 6,7 °C 97 % 1009,4 hPa 0,0 l/m² 0 min 0 min 50 W/m² 9,7 km/h (2 Bft) 97,87 %
13.01.2026 14:56 9,8 °C 10,0 °C 6,7 °C 97 % 1009,4 hPa 0,0 l/m² 0 min 0 min 47 W/m² 3,2 km/h (1 Bft) 98,25 %
13.01.2026 14:58 9,8 °C 10,0 °C 6,7 °C 97 % 1009,4 hPa 0,0 l/m² 0 min 0 min 46 W/m² 6,4 km/h (2 Bft) 95,00 %
13.01.2026 15:00 9,8 °C 9,4 °C 6,7 °C 97 % 1009,3 hPa 0,0 l/m² 0 min 0 min 46 W/m² 9,7 km/h (2 Bft) 97,83 %
13.01.2026 15:02 9,8 °C 9,4 °C 6,7 °C 97 % 1009,3 hPa 0,0 l/m² 0 min 0 min 44 W/m² 6,4 km/h (2 Bft) 97,92 %
13.01.2026 15:04 9,8 °C 9,4 °C 6,7 °C 97 % 1009,3 hPa 0,0 l/m² 0 min 0 min 44 W/m² 6,4 km/h (2 Bft) 98,00 %
13.01.2026 15:08 9,8 °C 9,4 °C 6,7 °C 97 % 1009,3 hPa 0,0 l/m² 0 min 0 min 43 W/m² 12,9 km/h (3 Bft) 95,60 %
13.01.2026 15:10 9,8 °C 9,4 °C 6,7 °C 97 % 1009,2 hPa 0,0 l/m² 0 min 0 min 42 W/m² 12,9 km/h (3 Bft) 100,00 %
13.01.2026 15:12 9,8 °C 9,4 °C 6,7 °C 97 % 1009,2 hPa 0,0 l/m² 0 min 0 min 45 W/m² 6,4 km/h (2 Bft) 100,00 %
13.01.2026 15:14 9,8 °C 9,4 °C 6,7 °C 97 % 1009,2 hPa 0,0 l/m² 0 min 0 min 46 W/m² 9,7 km/h (2 Bft) 94,87 %
13.01.2026 15:16 9,8 °C 9,4 °C 6,7 °C 96 % 1009,2 hPa 0,0 l/m² 0 min 0 min 46 W/m² 16,1 km/h (3 Bft) 94,92 %
13.01.2026 15:18 9,8 °C 9,4 °C 6,7 °C 96 % 1009,2 hPa 0,0 l/m² 0 min 0 min 47 W/m² 12,9 km/h (3 Bft) 94,74 %
13.01.2026 15:20 9,8 °C 10,0 °C 6,7 °C 96 % 1009,3 hPa 0,0 l/m² 0 min 0 min 53 W/m² 6,4 km/h (2 Bft) 95,74 %
13.01.2026 15:22 9,8 °C 10,0 °C 6,7 °C 96 % 1009,3 hPa 0,0 l/m² 0 min 0 min 53 W/m² 6,4 km/h (2 Bft) 93,88 %
13.01.2026 15:24 9,8 °C 10,0 °C 6,7 °C 96 % 1009,3 hPa 0,0 l/m² 0 min 0 min 49 W/m² 6,4 km/h (2 Bft) 95,45 %
13.01.2026 15:26 9,8 °C 10,0 °C 6,7 °C 96 % 1009,3 hPa 0,0 l/m² 0 min 0 min 46 W/m² 6,4 km/h (2 Bft) 96,00 %
13.01.2026 15:28 9,8 °C 10,0 °C 6,7 °C 96 % 1009,4 hPa 0,0 l/m² 0 min 0 min 41 W/m² 16,1 km/h (3 Bft) 95,65 %
13.01.2026 15:30 9,8 °C 10,0 °C 6,7 °C 96 % 1009,3 hPa 0,0 l/m² 0 min 0 min 37 W/m² 12,9 km/h (3 Bft) 93,75 %
13.01.2026 15:34 9,8 °C 9,4 °C 6,7 °C 96 % 1009,4 hPa 0,0 l/m² 0 min 0 min 37 W/m² 16,1 km/h (3 Bft) 93,62 %
13.01.2026 15:36 9,8 °C 9,4 °C 6,7 °C 96 % 1009,4 hPa 0,0 l/m² 0 min 0 min 37 W/m² 12,9 km/h (3 Bft) 96,23 %
13.01.2026 15:38 9,8 °C 9,4 °C 6,7 °C 96 % 1009,3 hPa 0,0 l/m² 0 min 0 min 36 W/m² 16,1 km/h (3 Bft) 95,00 %
13.01.2026 15:42 9,8 °C 9,4 °C 6,7 °C 95 % 1009,3 hPa 0,0 l/m² 0 min 0 min 33 W/m² 12,9 km/h (3 Bft) 95,65 %
13.01.2026 15:44 9,8 °C 9,4 °C 6,1 °C 95 % 1009,3 hPa 0,0 l/m² 0 min 0 min 33 W/m² 6,4 km/h (2 Bft) 96,55 %
13.01.2026 15:45 9,8 °C 9,4 °C 6,1 °C 95 % 1009,3 hPa 0,0 l/m² 0 min 0 min 33 W/m² 3,2 km/h (1 Bft) 97,06 %
13.01.2026 15:50 9,7 °C 9,4 °C 6,1 °C 95 % 1009,2 hPa 0,0 l/m² 0 min 0 min 33 W/m² 16,1 km/h (3 Bft) 94,87 %
13.01.2026 15:54 9,7 °C 9,4 °C 6,7 °C 95 % 1009,2 hPa 0,0 l/m² 0 min 0 min 37 W/m² 16,1 km/h (3 Bft) 97,87 %
13.01.2026 15:58 9,7 °C 9,4 °C 6,1 °C 95 % 1009,1 hPa 0,0 l/m² 0 min 0 min 36 W/m² 22,5 km/h (4 Bft) 96,77 %
13.01.2026 16:02 9,6 °C 9,4 °C 6,1 °C 94 % 1009,1 hPa 0,0 l/m² 0 min 0 min 33 W/m² 16,1 km/h (3 Bft) 97,03 %
13.01.2026 16:04 9,6 °C 9,4 °C 6,1 °C 94 % 1009,1 hPa 0,0 l/m² 0 min 0 min 28 W/m² 16,1 km/h (3 Bft) 100,00 %
13.01.2026 16:08 9,6 °C 8,9 °C 6,1 °C 94 % 1009,2 hPa 0,0 l/m² 0 min 0 min 24 W/m² 19,3 km/h (3 Bft) 100,00 %
13.01.2026 16:10 9,5 °C 8,9 °C 6,1 °C 94 % 1009,2 hPa 0,0 l/m² 0 min 0 min 20 W/m² 16,1 km/h (3 Bft) 97,78 %
13.01.2026 16:12 9,5 °C 8,9 °C 6,1 °C 93 % 1009,2 hPa 0,0 l/m² 0 min 0 min 19 W/m² 19,3 km/h (3 Bft) 100,00 %
13.01.2026 16:14 9,5 °C 8,9 °C 6,1 °C 93 % 1009,1 hPa 0,0 l/m² 0 min 0 min 19 W/m² 19,3 km/h (3 Bft) 100,00 %
13.01.2026 16:16 9,4 °C 8,9 °C 6,1 °C 93 % 1009,2 hPa 0,0 l/m² 0 min 0 min 19 W/m² 6,4 km/h (2 Bft) 97,87 %
13.01.2026 16:18 9,4 °C 8,9 °C 6,1 °C 93 % 1009,2 hPa 0,0 l/m² 0 min 0 min 21 W/m² 12,9 km/h (3 Bft) 100,00 %
13.01.2026 16:20 9,4 °C 8,9 °C 6,1 °C 93 % 1009,1 hPa 0,0 l/m² 0 min 0 min 23 W/m² 12,9 km/h (3 Bft) 100,00 %
13.01.2026 16:22 9,4 °C 8,9 °C 6,1 °C 93 % 1009,1 hPa 0,0 l/m² 0 min 0 min 23 W/m² 16,1 km/h (3 Bft) 100,00 %
13.01.2026 16:24 9,4 °C 8,9 °C 6,1 °C 93 % 1009,1 hPa 0,0 l/m² 0 min 0 min 23 W/m² 12,9 km/h (3 Bft) 100,00 %
13.01.2026 16:26 9,4 °C 8,9 °C 6,1 °C 93 % 1009,1 hPa 0,0 l/m² 0 min 0 min 20 W/m² 16,1 km/h (3 Bft) 100,00 %
13.01.2026 16:28 9,4 °C 8,9 °C 6,1 °C 93 % 1009,1 hPa 0,0 l/m² 0 min 0 min 18 W/m² 12,9 km/h (3 Bft) 100,00 %
13.01.2026 16:30 9,4 °C 8,9 °C 6,1 °C 92 % 1009,1 hPa 0,0 l/m² 0 min 0 min 17 W/m² 12,9 km/h (3 Bft) 100,00 %
13.01.2026 16:32 9,4 °C 8,9 °C 6,1 °C 92 % 1009,1 hPa 0,0 l/m² 0 min 0 min 15 W/m² 12,9 km/h (3 Bft) 100,00 %
13.01.2026 16:34 9,4 °C 8,9 °C 6,1 °C 92 % 1009,0 hPa 0,0 l/m² 0 min 0 min 12 W/m² 16,1 km/h (3 Bft) 100,00 %
13.01.2026 16:36 9,3 °C 8,9 °C 6,1 °C 92 % 1009,1 hPa 0,0 l/m² 0 min 0 min 12 W/m² 12,9 km/h (3 Bft) 100,00 %
13.01.2026 16:38 9,3 °C 8,9 °C 6,1 °C 92 % 1009,1 hPa 0,0 l/m² 0 min 0 min 10 W/m² 12,9 km/h (3 Bft) 100,00 %
13.01.2026 16:40 9,3 °C 8,9 °C 6,1 °C 92 % 1009,1 hPa 0,0 l/m² 0 min 0 min 8 W/m² 16,1 km/h (3 Bft) 100,00 %
13.01.2026 16:42 9,3 °C 8,3 °C 5,6 °C 92 % 1009,2 hPa 0,0 l/m² 0 min 0 min 7 W/m² 16,1 km/h (3 Bft) 95,74 %
13.01.2026 16:44 9,3 °C 8,3 °C 5,6 °C 92 % 1009,2 hPa 0,0 l/m² 0 min 0 min 5 W/m² 16,1 km/h (3 Bft) 100,00 %
13.01.2026 16:46 9,3 °C 8,3 °C 5,6 °C 92 % 1009,2 hPa 0,0 l/m² 0 min 0 min 4 W/m² 12,9 km/h (3 Bft) 100,00 %
13.01.2026 16:48 9,3 °C 8,3 °C 5,6 °C 91 % 1009,3 hPa 0,0 l/m² 0 min 0 min 0 W/m² 12,9 km/h (3 Bft) 100,00 %
13.01.2026 16:50 9,3 °C 8,3 °C 5,6 °C 91 % 1009,2 hPa 0,0 l/m² 0 min 0 min 0 W/m² 9,7 km/h (2 Bft) 97,78 %
13.01.2026 16:52 9,2 °C 8,3 °C 5,6 °C 91 % 1009,1 hPa 0,0 l/m² 0 min 0 min 0 W/m² 9,7 km/h (2 Bft) 100,00 %
13.01.2026 16:54 9,2 °C 8,3 °C 5,6 °C 91 % 1009,1 hPa 0,0 l/m² 0 min 0 min 0 W/m² 12,9 km/h (3 Bft) 100,00 %
13.01.2026 16:56 9,2 °C 8,3 °C 5,6 °C 91 % 1009,1 hPa 0,0 l/m² 0 min 0 min 0 W/m² 6,4 km/h (2 Bft) 100,00 %
13.01.2026 16:58 9,2 °C 8,3 °C 5,6 °C 91 % 1009,1 hPa 0,0 l/m² 0 min 0 min 0 W/m² 16,1 km/h (3 Bft) 98,08 %
13.01.2026 17:00 9,2 °C 8,3 °C 5,6 °C 91 % 1009,2 hPa 0,0 l/m² 0 min 0 min 0 W/m² 12,9 km/h (3 Bft) 95,74 %
13.01.2026 17:02 9,1 °C 8,3 °C 5,6 °C 91 % 1009,2 hPa 0,0 l/m² 0 min 0 min 0 W/m² 12,9 km/h (3 Bft) 100,00 %
13.01.2026 17:04 9,1 °C 8,3 °C 5,6 °C 91 % 1009,2 hPa 0,0 l/m² 0 min 0 min 0 W/m² 9,7 km/h (2 Bft) 100,00 %
13.01.2026 17:08 9,1 °C 8,3 °C 5,6 °C 91 % 1009,3 hPa 0,0 l/m² 0 min 0 min 0 W/m² 19,3 km/h (3 Bft) 97,65 %
13.01.2026 17:10 9,0 °C 8,3 °C 5,6 °C 91 % 1009,3 hPa 0,0 l/m² 0 min 0 min 0 W/m² 12,9 km/h (3 Bft) 94,74 %
13.01.2026 17:12 9,0 °C 8,3 °C 5,6 °C 91 % 1009,4 hPa 0,0 l/m² 0 min 0 min 0 W/m² 16,1 km/h (3 Bft) 95,83 %
13.01.2026 17:14 9,0 °C 8,3 °C 5,6 °C 91 % 1009,4 hPa 0,0 l/m² 0 min 0 min 0 W/m² 12,9 km/h (3 Bft) 95,74 %
13.01.2026 17:16 8,9 °C 8,3 °C 5,6 °C 91 % 1009,3 hPa 0,0 l/m² 0 min 0 min 0 W/m² 12,9 km/h (3 Bft) 97,56 %
13.01.2026 17:18 8,9 °C 8,3 °C 5,6 °C 92 % 1009,4 hPa 0,0 l/m² 0 min 0 min 0 W/m² 12,9 km/h (3 Bft) 94,00 %
13.01.2026 17:20 8,9 °C 8,3 °C 5,6 °C 92 % 1009,3 hPa 0,0 l/m² 0 min 0 min 0 W/m² 12,9 km/h (3 Bft) 93,88 %
13.01.2026 17:22 8,9 °C 8,3 °C 5,6 °C 92 % 1009,4 hPa 0,0 l/m² 0 min 0 min 0 W/m² 12,9 km/h (3 Bft) 93,62 %
13.01.2026 17:24 8,9 °C 7,8 °C 5,6 °C 92 % 1009,4 hPa 0,0 l/m² 0 min 0 min 0 W/m² 6,4 km/h (2 Bft) 97,14 %
13.01.2026 17:26 8,8 °C 8,3 °C 5,6 °C 92 % 1009,4 hPa 0,0 l/m² 0 min 0 min 0 W/m² 19,3 km/h (3 Bft) 95,74 %
13.01.2026 17:28 8,8 °C 8,3 °C 5,6 °C 92 % 1009,4 hPa 0,0 l/m² 0 min 0 min 0 W/m² 16,1 km/h (3 Bft) 93,62 %
13.01.2026 17:30 8,8 °C 8,3 °C 5,6 °C 92 % 1009,4 hPa 0,0 l/m² 0 min 0 min 0 W/m² 22,5 km/h (4 Bft) 95,74 %
13.01.2026 17:32 8,8 °C 7,8 °C 5,6 °C 92 % 1009,4 hPa 0,0 l/m² 0 min 0 min 0 W/m² 16,1 km/h (3 Bft) 91,49 %
13.01.2026 17:34 8,8 °C 7,8 °C 5,6 °C 92 % 1009,4 hPa 0,0 l/m² 0 min 0 min 0 W/m² 16,1 km/h (3 Bft) 95,65 %
13.01.2026 17:36 8,8 °C 7,8 °C 5,6 °C 92 % 1009,4 hPa 0,0 l/m² 0 min 0 min 0 W/m² 16,1 km/h (3 Bft) 94,34 %
13.01.2026 17:38 8,8 °C 7,8 °C 5,6 °C 92 % 1009,4 hPa 0,0 l/m² 0 min 0 min 0 W/m² 19,3 km/h (3 Bft) 95,83 %
13.01.2026 17:40 8,7 °C 7,8 °C 5,6 °C 92 % 1009,5 hPa 0,0 l/m² 0 min 0 min 0 W/m² 12,9 km/h (3 Bft) 95,74 %
13.01.2026 17:42 8,7 °C 7,8 °C 5,6 °C 92 % 1009,4 hPa 0,0 l/m² 0 min 0 min 0 W/m² 19,3 km/h (3 Bft) 95,65 %
13.01.2026 17:44 8,7 °C 7,8 °C 5,6 °C 92 % 1009,5 hPa 0,0 l/m² 0 min 0 min 0 W/m² 19,3 km/h (3 Bft) 97,87 %
13.01.2026 17:46 8,7 °C 7,8 °C 5,0 °C 92 % 1009,4 hPa 0,0 l/m² 0 min 0 min 0 W/m² 12,9 km/h (3 Bft) 94,00 %
13.01.2026 17:48 8,7 °C 7,8 °C 5,0 °C 92 % 1009,4 hPa 0,0 l/m² 0 min 0 min 0 W/m² 16,1 km/h (3 Bft) 97,30 %
13.01.2026 17:50 8,7 °C 7,8 °C 5,0 °C 92 % 1009,5 hPa 0,0 l/m² 0 min 0 min 0 W/m² 19,3 km/h (3 Bft) 100,00 %
13.01.2026 17:52 8,7 °C 7,8 °C 5,0 °C 92 % 1009,5 hPa 0,0 l/m² 0 min 0 min 0 W/m² 19,3 km/h (3 Bft) 100,00 %
13.01.2026 17:54 8,6 °C 7,8 °C 5,0 °C 92 % 1009,5 hPa 0,0 l/m² 0 min 0 min 0 W/m² 19,3 km/h (3 Bft) 100,00 %
13.01.2026 17:56 8,6 °C 7,8 °C 5,0 °C 92 % 1009,5 hPa 0,0 l/m² 0 min 0 min 0 W/m² 29,0 km/h (5 Bft) 100,00 %
13.01.2026 17:58 8,6 °C 7,8 °C 5,0 °C 92 % 1009,5 hPa 0,0 l/m² 0 min 0 min 0 W/m² 16,1 km/h (3 Bft) 100,00 %
13.01.2026 18:00 8,6 °C 7,8 °C 5,0 °C 92 % 1009,4 hPa 0,0 l/m² 0 min 0 min 0 W/m² 19,3 km/h (3 Bft) 100,00 %
13.01.2026 18:02 8,6 °C 7,8 °C 5,0 °C 92 % 1009,4 hPa 0,0 l/m² 0 min 0 min 0 W/m² 19,3 km/h (3 Bft) 100,00 %
13.01.2026 18:07 8,5 °C 7,8 °C 5,0 °C 92 % 1009,3 hPa 0,0 l/m² 0 min 0 min 0 W/m² 19,3 km/h (3 Bft) 100,00 %
13.01.2026 18:08 8,6 °C 7,8 °C 5,0 °C 92 % 1009,3 hPa 0,0 l/m² 0 min 0 min 0 W/m² 16,1 km/h (3 Bft) 97,41 %
13.01.2026 18:12 8,5 °C 7,8 °C 5,0 °C 92 % 1009,3 hPa 0,0 l/m² 0 min 0 min 0 W/m² 22,5 km/h (4 Bft) 97,87 %
13.01.2026 18:14 8,4 °C 7,8 °C 5,0 °C 92 % 1009,3 hPa 0,0 l/m² 0 min 0 min 0 W/m² 16,1 km/h (3 Bft) 97,87 %
13.01.2026 18:18 8,4 °C 7,8 °C 5,0 °C 92 % 1009,2 hPa 0,0 l/m² 0 min 0 min 0 W/m² 25,7 km/h (4 Bft) 97,03 %
13.01.2026 18:20 8,4 °C 7,8 °C 5,0 °C 92 % 1009,2 hPa 0,0 l/m² 0 min 0 min 0 W/m² 16,1 km/h (3 Bft) 95,65 %
13.01.2026 18:22 8,4 °C 7,8 °C 5,0 °C 92 % 1009,2 hPa 0,0 l/m² 0 min 0 min 0 W/m² 22,5 km/h (4 Bft) 97,96 %
13.01.2026 18:24 8,4 °C 7,8 °C 5,0 °C 92 % 1009,2 hPa 0,0 l/m² 0 min 0 min 0 W/m² 19,3 km/h (3 Bft) 97,37 %
13.01.2026 18:26 8,3 °C 7,8 °C 5,0 °C 92 % 1009,2 hPa 0,0 l/m² 0 min 0 min 0 W/m² 25,7 km/h (4 Bft) 95,74 %
13.01.2026 18:28 8,3 °C 7,8 °C 5,0 °C 92 % 1009,1 hPa 0,0 l/m² 0 min 0 min 0 W/m² 16,1 km/h (3 Bft) 94,34 %
13.01.2026 18:30 8,3 °C 7,8 °C 5,0 °C 92 % 1009,1 hPa 0,0 l/m² 0 min 0 min 0 W/m² 16,1 km/h (3 Bft) 97,56 %
13.01.2026 18:32 8,3 °C 7,8 °C 5,0 °C 92 % 1009,2 hPa 0,0 l/m² 0 min 0 min 0 W/m² 19,3 km/h (3 Bft) 98,08 %
13.01.2026 18:34 8,3 °C 7,8 °C 5,0 °C 92 % 1009,1 hPa 0,0 l/m² 0 min 0 min 0 W/m² 16,1 km/h (3 Bft) 97,87 %
13.01.2026 18:36 8,3 °C 7,8 °C 5,0 °C 92 % 1009,1 hPa 0,0 l/m² 0 min 0 min 0 W/m² 19,3 km/h (3 Bft) 95,12 %
13.01.2026 18:38 8,3 °C 7,8 °C 5,0 °C 92 % 1009,1 hPa 0,0 l/m² 0 min 0 min 0 W/m² 22,5 km/h (4 Bft) 95,65 %
13.01.2026 18:40 8,3 °C 7,8 °C 5,0 °C 92 % 1009,0 hPa 0,0 l/m² 0 min 0 min 0 W/m² 12,9 km/h (3 Bft) 96,55 %
13.01.2026 18:42 8,2 °C 7,8 °C 5,0 °C 92 % 1009,1 hPa 0,0 l/m² 0 min 0 min 0 W/m² 19,3 km/h (3 Bft) 97,83 %
13.01.2026 18:44 8,2 °C 7,8 °C 5,0 °C 92 % 1009,1 hPa 0,0 l/m² 0 min 0 min 0 W/m² 12,9 km/h (3 Bft) 97,87 %
13.01.2026 18:46 8,2 °C 7,8 °C 5,0 °C 92 % 1009,1 hPa 0,0 l/m² 0 min 0 min 0 W/m² 19,3 km/h (3 Bft) 97,22 %
13.01.2026 18:48 8,2 °C 7,8 °C 5,0 °C 92 % 1009,0 hPa 0,0 l/m² 0 min 0 min 0 W/m² 16,1 km/h (3 Bft) 97,92 %
13.01.2026 18:50 8,2 °C 7,8 °C 5,0 °C 92 % 1009,0 hPa 0,0 l/m² 0 min 0 min 0 W/m² 16,1 km/h (3 Bft) 97,87 %
13.01.2026 18:52 8,2 °C 7,8 °C 5,0 °C 92 % 1008,9 hPa 0,0 l/m² 0 min 0 min 0 W/m² 6,4 km/h (2 Bft) 97,87 %
13.01.2026 18:54 8,2 °C 7,8 °C 5,0 °C 92 % 1009,0 hPa 0,0 l/m² 0 min 0 min 0 W/m² 19,3 km/h (3 Bft) 95,65 %
13.01.2026 18:56 8,2 °C 7,8 °C 5,0 °C 92 % 1008,9 hPa 0,0 l/m² 0 min 0 min 0 W/m² 19,3 km/h (3 Bft) 95,74 %
13.01.2026 18:58 8,2 °C 7,8 °C 5,0 °C 92 % 1008,9 hPa 0,0 l/m² 0 min 0 min 0 W/m² 9,7 km/h (2 Bft) 96,43 %
13.01.2026 19:00 8,2 °C 7,8 °C 5,0 °C 92 % 1009,0 hPa 0,0 l/m² 0 min 0 min 0 W/m² 16,1 km/h (3 Bft) 97,83 %
13.01.2026 19:02 8,2 °C 7,8 °C 5,0 °C 92 % 1008,9 hPa 0,0 l/m² 0 min 0 min 0 W/m² 12,9 km/h (3 Bft) 100,00 %
13.01.2026 19:04 8,2 °C 7,8 °C 5,0 °C 92 % 1008,9 hPa 0,0 l/m² 0 min 0 min 0 W/m² 16,1 km/h (3 Bft) 97,96 %
13.01.2026 19:08 8,1 °C 7,8 °C 5,0 °C 92 % 1008,9 hPa 0,0 l/m² 0 min 0 min 0 W/m² 19,3 km/h (3 Bft) 96,77 %
13.01.2026 19:10 8,1 °C 7,8 °C 5,0 °C 92 % 1009,0 hPa 0,0 l/m² 0 min 0 min 0 W/m² 16,1 km/h (3 Bft) 96,43 %
13.01.2026 19:12 8,1 °C 7,2 °C 5,0 °C 92 % 1008,9 hPa 0,0 l/m² 0 min 0 min 0 W/m² 16,1 km/h (3 Bft) 97,78 %
13.01.2026 19:16 8,1 °C 7,8 °C 5,0 °C 92 % 1008,9 hPa 0,0 l/m² 0 min 0 min 0 W/m² 22,5 km/h (4 Bft) 95,83 %
13.01.2026 19:18 8,1 °C 7,8 °C 5,0 °C 92 % 1008,9 hPa 0,0 l/m² 0 min 0 min 0 W/m² 19,3 km/h (3 Bft) 97,14 %
13.01.2026 19:20 8,1 °C 7,8 °C 5,0 °C 92 % 1008,9 hPa 0,0 l/m² 0 min 0 min 0 W/m² 12,9 km/h (3 Bft) 97,96 %
13.01.2026 19:22 8,1 °C 7,8 °C 5,0 °C 92 % 1008,9 hPa 0,0 l/m² 0 min 0 min 0 W/m² 12,9 km/h (3 Bft) 97,87 %
13.01.2026 19:24 8,1 °C 7,8 °C 5,0 °C 92 % 1008,9 hPa 0,0 l/m² 0 min 0 min 0 W/m² 16,1 km/h (3 Bft) 97,87 %
13.01.2026 19:26 8,1 °C 7,2 °C 5,0 °C 92 % 1008,9 hPa 0,0 l/m² 0 min 0 min 0 W/m² 16,1 km/h (3 Bft) 95,74 %
13.01.2026 19:28 8,1 °C 7,2 °C 5,0 °C 92 % 1008,8 hPa 0,0 l/m² 0 min 0 min 0 W/m² 16,1 km/h (3 Bft) 97,87 %
13.01.2026 19:30 8,1 °C 7,2 °C 4,4 °C 92 % 1008,9 hPa 0,0 l/m² 0 min 0 min 0 W/m² 12,9 km/h (3 Bft) 98,11 %
13.01.2026 19:32 8,1 °C 7,2 °C 4,4 °C 92 % 1008,9 hPa 0,0 l/m² 0 min 0 min 0 W/m² 16,1 km/h (3 Bft) 97,50 %
13.01.2026 19:34 8,1 °C 7,2 °C 4,4 °C 92 % 1008,9 hPa 0,0 l/m² 0 min 0 min 0 W/m² 16,1 km/h (3 Bft) 97,87 %
13.01.2026 19:36 8,1 °C 7,2 °C 4,4 °C 92 % 1008,9 hPa 0,0 l/m² 0 min 0 min 0 W/m² 19,3 km/h (3 Bft) 95,65 %
13.01.2026 19:38 8,1 °C 7,2 °C 4,4 °C 92 % 1008,9 hPa 0,0 l/m² 0 min 0 min 0 W/m² 19,3 km/h (3 Bft) 98,25 %
13.01.2026 19:40 8,1 °C 7,2 °C 4,4 °C 92 % 1008,9 hPa 0,0 l/m² 0 min 0 min 0 W/m² 19,3 km/h (3 Bft) 100,00 %
13.01.2026 19:42 8,1 °C 7,2 °C 4,4 °C 92 % 1008,9 hPa 0,0 l/m² 0 min 0 min 0 W/m² 22,5 km/h (4 Bft) 97,44 %
13.01.2026 19:44 8,1 °C 7,2 °C 4,4 °C 92 % 1008,9 hPa 0,0 l/m² 0 min 0 min 0 W/m² 16,1 km/h (3 Bft) 97,87 %
13.01.2026 19:46 8,1 °C 7,2 °C 4,4 °C 92 % 1008,9 hPa 0,0 l/m² 0 min 0 min 0 W/m² 19,3 km/h (3 Bft) 97,87 %
13.01.2026 19:48 8,1 °C 7,2 °C 4,4 °C 92 % 1008,9 hPa 0,0 l/m² 0 min 0 min 0 W/m² 22,5 km/h (4 Bft) 95,56 %
13.01.2026 19:50 8,1 °C 7,2 °C 4,4 °C 92 % 1008,9 hPa 0,0 l/m² 0 min 0 min 0 W/m² 19,3 km/h (3 Bft) 98,08 %
13.01.2026 19:52 8,1 °C 7,2 °C 4,4 °C 92 % 1008,9 hPa 0,0 l/m² 0 min 0 min 0 W/m² 16,1 km/h (3 Bft) 97,83 %
13.01.2026 19:56 8,0 °C 7,2 °C 4,4 °C 92 % 1008,9 hPa 0,0 l/m² 0 min 0 min 0 W/m² 25,7 km/h (4 Bft) 96,81 %
13.01.2026 20:00 8,0 °C 7,2 °C 4,4 °C 92 % 1008,8 hPa 0,0 l/m² 0 min 0 min 0 W/m² 19,3 km/h (3 Bft) 97,87 %
13.01.2026 20:04 7,9 °C 7,2 °C 4,4 °C 92 % 1008,8 hPa 0,0 l/m² 0 min 0 min 0 W/m² 16,1 km/h (3 Bft) 97,75 %
13.01.2026 20:07 7,9 °C 7,2 °C 4,4 °C 92 % 1008,8 hPa 0,0 l/m² 0 min 0 min 0 W/m² 16,1 km/h (3 Bft) 97,30 %
13.01.2026 20:08 7,9 °C 7,2 °C 4,4 °C 92 % 1008,9 hPa 0,0 l/m² 0 min 0 min 0 W/m² 9,7 km/h (2 Bft) 97,36 %
13.01.2026 20:10 7,9 °C 7,2 °C 4,4 °C 92 % 1008,8 hPa 0,0 l/m² 0 min 0 min 0 W/m² 19,3 km/h (3 Bft) 100,00 %
13.01.2026 20:14 7,9 °C 7,2 °C 4,4 °C 92 % 1008,8 hPa 0,0 l/m² 0 min 0 min 0 W/m² 25,7 km/h (4 Bft) 97,18 %
13.01.2026 20:16 7,9 °C 7,2 °C 4,4 °C 92 % 1008,8 hPa 0,0 l/m² 0 min 0 min 0 W/m² 19,3 km/h (3 Bft) 97,67 %
13.01.2026 20:18 7,9 °C 7,2 °C 4,4 °C 92 % 1008,9 hPa 0,0 l/m² 0 min 0 min 0 W/m² 19,3 km/h (3 Bft) 98,00 %
13.01.2026 20:20 7,9 °C 7,2 °C 4,4 °C 92 % 1008,9 hPa 0,0 l/m² 0 min 0 min 0 W/m² 19,3 km/h (3 Bft) 97,92 %
13.01.2026 20:22 7,9 °C 7,2 °C 4,4 °C 92 % 1008,9 hPa 0,0 l/m² 0 min 0 min 0 W/m² 16,1 km/h (3 Bft) 95,83 %
13.01.2026 20:24 7,9 °C 7,2 °C 4,4 °C 92 % 1008,9 hPa 0,0 l/m² 0 min 0 min 0 W/m² 16,1 km/h (3 Bft) 95,83 %
13.01.2026 20:26 7,9 °C 7,2 °C 4,4 °C 92 % 1009,0 hPa 0,0 l/m² 0 min 0 min 0 W/m² 19,3 km/h (3 Bft) 97,87 %
13.01.2026 20:28 7,8 °C 7,2 °C 4,4 °C 92 % 1009,0 hPa 0,0 l/m² 0 min 0 min 0 W/m² 12,9 km/h (3 Bft) 97,83 %
13.01.2026 20:30 7,8 °C 7,2 °C 4,4 °C 92 % 1009,0 hPa 0,0 l/m² 0 min 0 min 0 W/m² 16,1 km/h (3 Bft) 97,62 %
13.01.2026 20:32 7,8 °C 7,2 °C 4,4 °C 92 % 1009,0 hPa 0,0 l/m² 0 min 0 min 0 W/m² 12,9 km/h (3 Bft) 100,00 %
13.01.2026 20:34 7,8 °C 7,2 °C 4,4 °C 93 % 1009,0 hPa 0,0 l/m² 0 min 0 min 0 W/m² 9,7 km/h (2 Bft) 100,00 %
13.01.2026 20:36 7,8 °C 7,2 °C 4,4 °C 93 % 1009,0 hPa 0,0 l/m² 0 min 0 min 0 W/m² 16,1 km/h (3 Bft) 97,92 %
13.01.2026 20:38 7,8 °C 7,2 °C 4,4 °C 93 % 1009,0 hPa 0,0 l/m² 0 min 0 min 0 W/m² 16,1 km/h (3 Bft) 100,00 %
13.01.2026 20:40 7,8 °C 7,2 °C 4,4 °C 93 % 1008,9 hPa 0,0 l/m² 0 min 0 min 0 W/m² 19,3 km/h (3 Bft) 97,22 %
13.01.2026 20:42 7,8 °C 7,2 °C 4,4 °C 93 % 1008,9 hPa 0,0 l/m² 0 min 0 min 0 W/m² 16,1 km/h (3 Bft) 98,28 %
13.01.2026 20:44 7,8 °C 7,2 °C 4,4 °C 92 % 1008,9 hPa 0,0 l/m² 0 min 0 min 0 W/m² 12,9 km/h (3 Bft) 100,00 %
13.01.2026 20:46 7,8 °C 7,2 °C 4,4 °C 92 % 1008,9 hPa 0,0 l/m² 0 min 0 min 0 W/m² 12,9 km/h (3 Bft) 97,87 %
13.01.2026 20:48 7,8 °C 7,2 °C 4,4 °C 92 % 1008,8 hPa 0,0 l/m² 0 min 0 min 0 W/m² 12,9 km/h (3 Bft) 100,00 %
13.01.2026 20:50 7,8 °C 7,2 °C 4,4 °C 93 % 1008,9 hPa 0,0 l/m² 0 min 0 min 0 W/m² 6,4 km/h (2 Bft) 100,00 %
13.01.2026 20:52 7,8 °C 7,2 °C 4,4 °C 93 % 1008,9 hPa 0,0 l/m² 0 min 0 min 0 W/m² 16,1 km/h (3 Bft) 97,87 %
13.01.2026 20:54 7,8 °C 7,2 °C 4,4 °C 93 % 1008,9 hPa 0,0 l/m² 0 min 0 min 0 W/m² 12,9 km/h (3 Bft) 100,00 %
13.01.2026 20:56 7,7 °C 7,2 °C 4,4 °C 93 % 1008,8 hPa 0,0 l/m² 0 min 0 min 0 W/m² 12,9 km/h (3 Bft) 100,00 %
13.01.2026 20:58 7,7 °C 7,2 °C 4,4 °C 93 % 1008,8 hPa 0,0 l/m² 0 min 0 min 0 W/m² 9,7 km/h (2 Bft) 95,74 %
13.01.2026 21:00 7,7 °C 7,2 °C 4,4 °C 93 % 1008,8 hPa 0,0 l/m² 0 min 0 min 0 W/m² 12,9 km/h (3 Bft) 97,87 %
13.01.2026 21:02 7,7 °C 7,2 °C 3,9 °C 93 % 1008,9 hPa 0,0 l/m² 0 min 0 min 0 W/m² 6,4 km/h (2 Bft) 95,65 %
13.01.2026 21:04 7,7 °C 7,2 °C 4,4 °C 93 % 1008,9 hPa 0,0 l/m² 0 min 0 min 0 W/m² 12,9 km/h (3 Bft) 95,92 %
13.01.2026 21:08 7,7 °C 7,2 °C 4,4 °C 93 % 1008,8 hPa 0,0 l/m² 0 min 0 min 0 W/m² 16,1 km/h (3 Bft) 95,29 %
13.01.2026 21:10 7,7 °C 7,2 °C 4,4 °C 93 % 1008,8 hPa 0,0 l/m² 0 min 0 min 0 W/m² 16,1 km/h (3 Bft) 95,74 %
13.01.2026 21:12 7,7 °C 7,2 °C 4,4 °C 93 % 1008,8 hPa 0,0 l/m² 0 min 0 min 0 W/m² 12,9 km/h (3 Bft) 95,74 %
13.01.2026 21:14 7,7 °C 7,2 °C 4,4 °C 93 % 1008,8 hPa 0,0 l/m² 0 min 0 min 0 W/m² 12,9 km/h (3 Bft) 91,49 %
13.01.2026 21:16 7,7 °C 7,2 °C 3,9 °C 93 % 1008,8 hPa 0,0 l/m² 0 min 0 min 0 W/m² 12,9 km/h (3 Bft) 95,65 %
13.01.2026 21:18 7,7 °C 7,2 °C 3,9 °C 93 % 1008,8 hPa 0,0 l/m² 0 min 0 min 0 W/m² 12,9 km/h (3 Bft) 91,07 %
13.01.2026 21:20 7,7 °C 7,2 °C 3,9 °C 93 % 1008,8 hPa 0,0 l/m² 0 min 0 min 0 W/m² 16,1 km/h (3 Bft) 95,56 %
13.01.2026 21:22 7,7 °C 7,2 °C 3,9 °C 93 % 1008,8 hPa 0,0 l/m² 0 min 0 min 0 W/m² 12,9 km/h (3 Bft) 92,50 %
13.01.2026 21:24 7,7 °C 7,2 °C 3,9 °C 93 % 1008,8 hPa 0,0 l/m² 0 min 0 min 0 W/m² 6,4 km/h (2 Bft) 95,74 %
13.01.2026 21:26 7,7 °C 7,2 °C 3,9 °C 93 % 1008,8 hPa 0,0 l/m² 0 min 0 min 0 W/m² 12,9 km/h (3 Bft) 94,74 %
13.01.2026 21:28 7,7 °C 7,2 °C 3,9 °C 93 % 1008,8 hPa 0,0 l/m² 0 min 0 min 0 W/m² 12,9 km/h (3 Bft) 97,83 %
13.01.2026 21:30 7,7 °C 7,2 °C 3,9 °C 93 % 1008,8 hPa 0,0 l/m² 0 min 0 min 0 W/m² 9,7 km/h (2 Bft) 94,59 %
13.01.2026 21:32 7,7 °C 7,2 °C 3,9 °C 93 % 1008,8 hPa 0,0 l/m² 0 min 0 min 0 W/m² 16,1 km/h (3 Bft) 98,15 %
13.01.2026 21:34 7,7 °C 7,2 °C 3,9 °C 93 % 1008,8 hPa 0,0 l/m² 0 min 0 min 0 W/m² 9,7 km/h (2 Bft) 95,74 %
13.01.2026 21:36 7,6 °C 7,2 °C 3,9 °C 93 % 1008,7 hPa 0,0 l/m² 0 min 0 min 0 W/m² 6,4 km/h (2 Bft) 95,65 %
13.01.2026 21:38 7,6 °C 6,7 °C 3,9 °C 93 % 1008,7 hPa 0,0 l/m² 0 min 0 min 0 W/m² 6,4 km/h (2 Bft) 95,12 %
13.01.2026 21:40 7,6 °C 6,7 °C 3,9 °C 93 % 1008,8 hPa 0,0 l/m² 0 min 0 min 0 W/m² 16,1 km/h (3 Bft) 98,21 %
13.01.2026 21:42 7,6 °C 6,7 °C 3,9 °C 93 % 1008,8 hPa 0,0 l/m² 0 min 0 min 0 W/m² 16,1 km/h (3 Bft) 97,83 %
13.01.2026 21:44 7,6 °C 6,7 °C 3,9 °C 93 % 1008,7 hPa 0,0 l/m² 0 min 0 min 0 W/m² 12,9 km/h (3 Bft) 97,37 %
13.01.2026 21:46 7,6 °C 6,7 °C 3,9 °C 93 % 1008,8 hPa 0,0 l/m² 0 min 0 min 0 W/m² 16,1 km/h (3 Bft) 97,87 %
13.01.2026 21:48 7,6 °C 6,7 °C 3,9 °C 93 % 1008,7 hPa 0,0 l/m² 0 min 0 min 0 W/m² 16,1 km/h (3 Bft) 97,87 %
13.01.2026 21:50 7,6 °C 6,7 °C 3,9 °C 93 % 1008,7 hPa 0,0 l/m² 0 min 0 min 0 W/m² 16,1 km/h (3 Bft) 97,87 %
13.01.2026 21:52 7,6 °C 6,7 °C 3,9 °C 93 % 1008,7 hPa 0,0 l/m² 0 min 0 min 0 W/m² 12,9 km/h (3 Bft) 97,83 %
13.01.2026 21:54 7,6 °C 6,7 °C 3,9 °C 93 % 1008,8 hPa 0,0 l/m² 0 min 0 min 0 W/m² 12,9 km/h (3 Bft) 97,87 %
13.01.2026 21:56 7,6 °C 7,2 °C 3,9 °C 93 % 1008,8 hPa 0,0 l/m² 0 min 0 min 0 W/m² 12,9 km/h (3 Bft) 94,44 %
13.01.2026 21:58 7,6 °C 7,2 °C 3,9 °C 93 % 1008,8 hPa 0,0 l/m² 0 min 0 min 0 W/m² 12,9 km/h (3 Bft) 97,92 %
13.01.2026 22:00 7,6 °C 7,2 °C 3,9 °C 93 % 1008,8 hPa 0,0 l/m² 0 min 0 min 0 W/m² 9,7 km/h (2 Bft) 97,44 %
13.01.2026 22:02 7,6 °C 7,2 °C 3,9 °C 94 % 1008,8 hPa 0,0 l/m² 0 min 0 min 0 W/m² 6,4 km/h (2 Bft) 98,21 %
13.01.2026 22:04 7,6 °C 7,2 °C 3,9 °C 93 % 1008,8 hPa 0,0 l/m² 0 min 0 min 0 W/m² 9,7 km/h (2 Bft) 100,00 %
13.01.2026 22:08 7,6 °C 7,2 °C 3,9 °C 93 % 1008,9 hPa 0,0 l/m² 0 min 0 min 0 W/m² 12,9 km/h (3 Bft) 97,89 %
13.01.2026 22:10 7,6 °C 7,2 °C 3,9 °C 93 % 1008,9 hPa 0,0 l/m² 0 min 0 min 0 W/m² 9,7 km/h (2 Bft) 100,00 %
13.01.2026 22:12 7,6 °C 7,2 °C 3,9 °C 93 % 1008,9 hPa 0,0 l/m² 0 min 0 min 0 W/m² 6,4 km/h (2 Bft) 97,44 %
13.01.2026 22:14 7,6 °C 7,2 °C 3,9 °C 93 % 1009,0 hPa 0,0 l/m² 0 min 0 min 0 W/m² 12,9 km/h (3 Bft) 97,87 %
13.01.2026 22:16 7,6 °C 7,2 °C 3,9 °C 93 % 1009,0 hPa 0,0 l/m² 0 min 0 min 0 W/m² 12,9 km/h (3 Bft) 100,00 %
13.01.2026 22:18 7,6 °C 7,2 °C 3,9 °C 93 % 1008,9 hPa 0,0 l/m² 0 min 0 min 0 W/m² 6,4 km/h (2 Bft) 100,00 %
13.01.2026 22:20 7,6 °C 7,2 °C 3,9 °C 93 % 1008,9 hPa 0,0 l/m² 0 min 0 min 0 W/m² 12,9 km/h (3 Bft) 100,00 %
13.01.2026 22:22 7,6 °C 7,2 °C 3,9 °C 93 % 1009,0 hPa 0,0 l/m² 0 min 0 min 0 W/m² 6,4 km/h (2 Bft) 97,92 %
13.01.2026 22:24 7,6 °C 7,2 °C 3,9 °C 93 % 1009,0 hPa 0,0 l/m² 0 min 0 min 0 W/m² 6,4 km/h (2 Bft) 95,74 %
13.01.2026 22:26 7,6 °C 7,2 °C 3,9 °C 93 % 1009,0 hPa 0,0 l/m² 0 min 0 min 0 W/m² 6,4 km/h (2 Bft) 93,48 %
13.01.2026 22:28 7,6 °C 7,2 °C 3,9 °C 93 % 1009,0 hPa 0,0 l/m² 0 min 0 min 0 W/m² 0,0 km/h (0 Bft) 97,87 %
13.01.2026 22:30 7,6 °C 7,2 °C 3,9 °C 93 % 1009,0 hPa 0,0 l/m² 0 min 0 min 0 W/m² 0,0 km/h (0 Bft) 95,56 %
13.01.2026 22:32 7,6 °C 7,2 °C 3,9 °C 93 % 1009,0 hPa 0,0 l/m² 0 min 0 min 0 W/m² 0,0 km/h (0 Bft) 95,74 %
13.01.2026 22:34 7,6 °C 7,2 °C 3,9 °C 93 % 1009,1 hPa 0,0 l/m² 0 min 0 min 0 W/m² 0,0 km/h (0 Bft) 97,92 %
13.01.2026 22:36 7,6 °C 6,7 °C 3,9 °C 93 % 1009,1 hPa 0,0 l/m² 0 min 0 min 0 W/m² 0,0 km/h (0 Bft) 98,21 %
13.01.2026 22:38 7,6 °C 7,2 °C 3,9 °C 93 % 1009,2 hPa 0,0 l/m² 0 min 0 min 0 W/m² 6,4 km/h (2 Bft) 97,83 %
13.01.2026 22:40 7,6 °C 7,2 °C 3,9 °C 93 % 1009,1 hPa 0,0 l/m² 0 min 0 min 0 W/m² 9,7 km/h (2 Bft) 95,65 %
13.01.2026 22:42 7,6 °C 7,2 °C 3,9 °C 93 % 1009,1 hPa 0,0 l/m² 0 min 0 min 0 W/m² 6,4 km/h (2 Bft) 97,50 %
13.01.2026 22:44 7,6 °C 6,7 °C 3,9 °C 93 % 1009,1 hPa 0,0 l/m² 0 min 0 min 0 W/m² 3,2 km/h (1 Bft) 97,87 %
13.01.2026 22:46 7,6 °C 6,7 °C 3,9 °C 93 % 1009,1 hPa 0,0 l/m² 0 min 0 min 0 W/m² 6,4 km/h (2 Bft) 97,83 %
13.01.2026 22:48 7,6 °C 6,7 °C 3,9 °C 93 % 1009,1 hPa 0,0 l/m² 0 min 0 min 0 W/m² 6,4 km/h (2 Bft) 97,83 %
13.01.2026 22:50 7,6 °C 6,7 °C 3,9 °C 93 % 1009,1 hPa 0,0 l/m² 0 min 0 min 0 W/m² 6,4 km/h (2 Bft) 96,49 %
13.01.2026 22:52 7,6 °C 6,7 °C 3,9 °C 93 % 1009,1 hPa 0,0 l/m² 0 min 0 min 0 W/m² 9,7 km/h (2 Bft) 93,62 %
13.01.2026 22:54 7,6 °C 6,7 °C 3,9 °C 93 % 1009,1 hPa 0,0 l/m² 0 min 0 min 0 W/m² 6,4 km/h (2 Bft) 97,83 %
13.01.2026 22:56 7,6 °C 6,7 °C 3,9 °C 93 % 1009,1 hPa 0,0 l/m² 0 min 0 min 0 W/m² 6,4 km/h (2 Bft) 92,31 %
13.01.2026 22:58 7,6 °C 6,7 °C 3,9 °C 93 % 1009,2 hPa 0,0 l/m² 0 min 0 min 0 W/m² 6,4 km/h (2 Bft) 95,74 %
13.01.2026 23:00 7,6 °C 6,7 °C 3,9 °C 93 % 1009,1 hPa 0,0 l/m² 0 min 0 min 0 W/m² 6,4 km/h (2 Bft) 95,74 %
13.01.2026 23:02 7,6 °C 6,7 °C 3,9 °C 93 % 1009,1 hPa 0,0 l/m² 0 min 0 min 0 W/m² 12,9 km/h (3 Bft) 95,74 %
13.01.2026 23:04 7,5 °C 6,7 °C 3,9 °C 93 % 1009,1 hPa 0,0 l/m² 0 min 0 min 0 W/m² 6,4 km/h (2 Bft) 95,74 %
13.01.2026 23:08 7,5 °C 6,7 °C 3,9 °C 94 % 1009,1 hPa 0,0 l/m² 0 min 0 min 0 W/m² 12,9 km/h (3 Bft) 97,87 %
13.01.2026 23:10 7,5 °C 6,7 °C 3,9 °C 94 % 1009,1 hPa 0,0 l/m² 0 min 0 min 0 W/m² 6,4 km/h (2 Bft) 97,87 %
13.01.2026 23:12 7,5 °C 6,7 °C 3,9 °C 94 % 1009,1 hPa 0,0 l/m² 0 min 0 min 0 W/m² 12,9 km/h (3 Bft) 97,73 %
13.01.2026 23:14 7,5 °C 6,7 °C 3,9 °C 94 % 1009,1 hPa 0,0 l/m² 0 min 0 min 0 W/m² 6,4 km/h (2 Bft) 97,83 %
13.01.2026 23:16 7,4 °C 6,7 °C 3,9 °C 94 % 1009,1 hPa 0,0 l/m² 0 min 0 min 0 W/m² 12,9 km/h (3 Bft) 98,00 %
13.01.2026 23:18 7,4 °C 6,7 °C 3,9 °C 94 % 1009,2 hPa 0,0 l/m² 0 min 0 min 0 W/m² 6,4 km/h (2 Bft) 95,74 %
13.01.2026 23:20 7,4 °C 6,7 °C 3,9 °C 94 % 1009,1 hPa 0,0 l/m² 0 min 0 min 0 W/m² 6,4 km/h (2 Bft) 97,87 %
13.01.2026 23:22 7,4 °C 6,7 °C 3,9 °C 94 % 1009,1 hPa 0,0 l/m² 0 min 0 min 0 W/m² 3,2 km/h (1 Bft) 93,62 %
13.01.2026 23:24 7,4 °C 6,7 °C 3,3 °C 94 % 1009,1 hPa 0,0 l/m² 0 min 0 min 0 W/m² 0,0 km/h (0 Bft) 100,00 %
13.01.2026 23:26 7,4 °C 6,7 °C 3,3 °C 94 % 1009,1 hPa 0,0 l/m² 0 min 0 min 0 W/m² 0,0 km/h (0 Bft) 100,00 %
13.01.2026 23:28 7,4 °C 6,7 °C 3,3 °C 94 % 1009,1 hPa 0,0 l/m² 0 min 0 min 0 W/m² 0,0 km/h (0 Bft) 100,00 %
13.01.2026 23:30 7,4 °C 6,7 °C 3,3 °C 94 % 1009,1 hPa 0,0 l/m² 0 min 0 min 0 W/m² 3,2 km/h (1 Bft) 98,08 %
13.01.2026 23:32 7,4 °C 6,7 °C 3,3 °C 94 % 1009,0 hPa 0,0 l/m² 0 min 0 min 0 W/m² 3,2 km/h (1 Bft) 97,83 %
13.01.2026 23:34 7,4 °C 6,7 °C 3,3 °C 94 % 1009,1 hPa 0,0 l/m² 0 min 0 min 0 W/m² 0,0 km/h (0 Bft) 97,83 %
13.01.2026 23:36 7,4 °C 6,7 °C 3,3 °C 94 % 1009,1 hPa 0,0 l/m² 0 min 0 min 0 W/m² 0,0 km/h (0 Bft) 100,00 %
13.01.2026 23:38 7,4 °C 6,7 °C 3,3 °C 94 % 1009,1 hPa 0,0 l/m² 0 min 0 min 0 W/m² 0,0 km/h (0 Bft) 100,00 %
13.01.2026 23:40 7,4 °C 6,7 °C 3,3 °C 94 % 1009,1 hPa 0,0 l/m² 0 min 0 min 0 W/m² 0,0 km/h (0 Bft) 100,00 %
13.01.2026 23:42 7,4 °C 6,7 °C 3,3 °C 94 % 1009,1 hPa 0,0 l/m² 0 min 0 min 0 W/m² 0,0 km/h (0 Bft) 100,00 %
13.01.2026 23:44 7,3 °C 6,7 °C 3,3 °C 94 % 1009,1 hPa 0,0 l/m² 0 min 0 min 0 W/m² 3,2 km/h (1 Bft) 100,00 %
13.01.2026 23:46 7,3 °C 6,7 °C 3,3 °C 94 % 1009,0 hPa 0,0 l/m² 0 min 0 min 0 W/m² 3,2 km/h (1 Bft) 100,00 %
13.01.2026 23:48 7,3 °C 6,7 °C 3,3 °C 94 % 1009,1 hPa 0,0 l/m² 0 min 0 min 0 W/m² 3,2 km/h (1 Bft) 97,83 %
13.01.2026 23:50 7,3 °C 6,1 °C 3,3 °C 94 % 1009,1 hPa 0,0 l/m² 0 min 0 min 0 W/m² 0,0 km/h (0 Bft) 100,00 %
13.01.2026 23:52 7,3 °C 6,1 °C 3,3 °C 94 % 1009,1 hPa 0,0 l/m² 0 min 0 min 0 W/m² 0,0 km/h (0 Bft) 100,00 %
13.01.2026 23:54 7,3 °C 6,1 °C 3,3 °C 94 % 1009,1 hPa 0,0 l/m² 0 min 0 min 0 W/m² 0,0 km/h (0 Bft) 100,00 %
13.01.2026 23:56 7,3 °C 6,1 °C 3,3 °C 94 % 1009,1 hPa 0,0 l/m² 0 min 0 min 0 W/m² 0,0 km/h (0 Bft) 98,08 %
13.01.2026 23:58 7,3 °C 6,1 °C 3,3 °C 94 % 1009,1 hPa 0,0 l/m² 0 min 0 min 0 W/m² 0,0 km/h (0 Bft) 97,87 %
_ Min-Zeit 08:09 23:50 00:00 16:48 21:36 - - - - 00:44 13:48
Minimum _ 7,2 °C 6,1 °C 3,3 °C 91 % 1008,7 hPa - - - - 0,0 km/h (0 Bft) 56,82 %
_ Max-Zeit 13:16 13:04 13:08 00:00 09:50 08:36 13:08 14:02 12:30 17:56 00:16
Maximum _ 10,0 °C 13,3 °C 7,2 °C 100 % 1011,5 hPa 0,2 l/m² 4 min 4 min 317 W/m² 29,0 km/h
S (5 Bft)
100,00 %
Durchschnitt _ 8,1 °C 7,7 °C 4,7 °C 97 % 1010,1 hPa #0,5 l/m² #18 min. #14 min. 63 W/m² 9,3 km/h (2 Bft) 97,45 %
© 2026 W. Hausmann